<?xml version="1.0" encoding="UTF-8" standalone="no" ?>
<gpx xmlns="http://www.topografix.com/GPX/1/1" xmlns:xsi="http://www.w3.org/2001/XMLSchema-instance" xsi:schemaLocation="http://www.topografix.com/GPX/1/1 http://www.topografix.com/GPX/1/1/gpx.xsd" version="1.1" creator="VisuGPX - https://www.visugpx.com">
  <metadata>
    <name>BEARN</name>
    <desc><![CDATA[Eysus Asasp Issor Escot]]></desc>
  </metadata>
  <trk>
    <name><![CDATA[Petit tour en vallée de Josbaigt - 19729 - UtagawaVTT.com]]></name>
    <trkseg>
      <trkpt lat="43.25063" lon="-0.70565">
        <ele>179.988754</ele>
        <time>2018-10-26T13:52:08Z</time>
      </trkpt>
      <trkpt lat="43.25055" lon="-0.70571">
        <ele>179.923752</ele>
        <time>2018-10-26T13:53:19Z</time>
      </trkpt>
      <trkpt lat="43.25046" lon="-0.70573">
        <ele>180.037506</ele>
        <time>2018-10-26T13:53:42Z</time>
      </trkpt>
      <trkpt lat="43.25034" lon="-0.70594">
        <ele>179.534042</ele>
        <time>2018-10-26T13:53:50Z</time>
      </trkpt>
      <trkpt lat="43.25033" lon="-0.70616">
        <ele>178.14975</ele>
        <time>2018-10-26T13:53:55Z</time>
      </trkpt>
      <trkpt lat="43.25039" lon="-0.70665">
        <ele>175.570007</ele>
        <time>2018-10-26T13:54:04Z</time>
      </trkpt>
      <trkpt lat="43.25029" lon="-0.70682">
        <ele>175.024994</ele>
        <time>2018-10-26T13:54:08Z</time>
      </trkpt>
      <trkpt lat="43.25008" lon="-0.70704">
        <ele>174.230103</ele>
        <time>2018-10-26T13:54:13Z</time>
      </trkpt>
      <trkpt lat="43.24986" lon="-0.70733">
        <ele>174</ele>
        <time>2018-10-26T13:54:18Z</time>
      </trkpt>
      <trkpt lat="43.24965" lon="-0.70768">
        <ele>174.147507</ele>
        <time>2018-10-26T13:54:22Z</time>
      </trkpt>
      <trkpt lat="43.2494" lon="-0.70818">
        <ele>174.929123</ele>
        <time>2018-10-26T13:54:27Z</time>
      </trkpt>
      <trkpt lat="43.24895" lon="-0.70938">
        <ele>176</ele>
        <time>2018-10-26T13:54:45Z</time>
      </trkpt>
      <trkpt lat="43.24881" lon="-0.70967">
        <ele>175.973267</ele>
        <time>2018-10-26T13:54:50Z</time>
      </trkpt>
      <trkpt lat="43.24835" lon="-0.71036">
        <ele>175.95079</ele>
        <time>2018-10-26T13:55:02Z</time>
      </trkpt>
      <trkpt lat="43.24803" lon="-0.71104">
        <ele>175.743759</ele>
        <time>2018-10-26T13:55:12Z</time>
      </trkpt>
      <trkpt lat="43.24768" lon="-0.71187">
        <ele>176.946808</ele>
        <time>2018-10-26T13:55:24Z</time>
      </trkpt>
      <trkpt lat="43.24751" lon="-0.71245">
        <ele>177.879379</ele>
        <time>2018-10-26T13:55:32Z</time>
      </trkpt>
      <trkpt lat="43.24745" lon="-0.71317">
        <ele>179.492493</ele>
        <time>2018-10-26T13:55:41Z</time>
      </trkpt>
      <trkpt lat="43.24753" lon="-0.71333">
        <ele>180.470001</ele>
        <time>2018-10-26T13:55:45Z</time>
      </trkpt>
      <trkpt lat="43.2477" lon="-0.71335">
        <ele>180.874374</ele>
        <time>2018-10-26T13:55:49Z</time>
      </trkpt>
      <trkpt lat="43.24789" lon="-0.71346">
        <ele>181.350006</ele>
        <time>2018-10-26T13:55:54Z</time>
      </trkpt>
      <trkpt lat="43.24799" lon="-0.71365">
        <ele>182.29715</ele>
        <time>2018-10-26T13:55:58Z</time>
      </trkpt>
      <trkpt lat="43.24807" lon="-0.71386">
        <ele>183.597794</ele>
        <time>2018-10-26T13:56:02Z</time>
      </trkpt>
      <trkpt lat="43.24814" lon="-0.71433">
        <ele>187.367676</ele>
        <time>2018-10-26T13:56:11Z</time>
      </trkpt>
      <trkpt lat="43.24849" lon="-0.71504">
        <ele>192.773743</ele>
        <time>2018-10-26T13:56:28Z</time>
      </trkpt>
      <trkpt lat="43.24884" lon="-0.71538">
        <ele>195.162079</ele>
        <time>2018-10-26T13:56:38Z</time>
      </trkpt>
      <trkpt lat="43.24976" lon="-0.71589">
        <ele>199.231247</ele>
        <time>2018-10-26T13:56:54Z</time>
      </trkpt>
      <trkpt lat="43.24997" lon="-0.71606">
        <ele>199.582901</ele>
        <time>2018-10-26T13:56:58Z</time>
      </trkpt>
      <trkpt lat="43.25036" lon="-0.71648">
        <ele>201.004288</ele>
        <time>2018-10-26T13:57:06Z</time>
      </trkpt>
      <trkpt lat="43.25142" lon="-0.71774">
        <ele>200.690002</ele>
        <time>2018-10-26T13:57:28Z</time>
      </trkpt>
      <trkpt lat="43.2516" lon="-0.71799">
        <ele>199.907501</ele>
        <time>2018-10-26T13:57:32Z</time>
      </trkpt>
      <trkpt lat="43.25174" lon="-0.71832">
        <ele>198.550964</ele>
        <time>2018-10-26T13:57:36Z</time>
      </trkpt>
      <trkpt lat="43.25189" lon="-0.71858">
        <ele>197.257797</ele>
        <time>2018-10-26T13:57:40Z</time>
      </trkpt>
      <trkpt lat="43.25265" lon="-0.71955">
        <ele>194.008743</ele>
        <time>2018-10-26T13:57:57Z</time>
      </trkpt>
      <trkpt lat="43.25264" lon="-0.7199">
        <ele>193.847031</ele>
        <time>2018-10-26T13:58:02Z</time>
      </trkpt>
      <trkpt lat="43.25249" lon="-0.72017">
        <ele>194.045227</ele>
        <time>2018-10-26T13:58:06Z</time>
      </trkpt>
      <trkpt lat="43.25215" lon="-0.72065">
        <ele>195.408356</ele>
        <time>2018-10-26T13:58:14Z</time>
      </trkpt>
      <trkpt lat="43.25191" lon="-0.72092">
        <ele>197.401245</ele>
        <time>2018-10-26T13:58:19Z</time>
      </trkpt>
      <trkpt lat="43.25153" lon="-0.72127">
        <ele>201.188751</ele>
        <time>2018-10-26T13:58:27Z</time>
      </trkpt>
      <trkpt lat="43.25161" lon="-0.72152">
        <ele>201.307495</ele>
        <time>2018-10-26T13:58:32Z</time>
      </trkpt>
      <trkpt lat="43.2521" lon="-0.72209">
        <ele>199.425659</ele>
        <time>2018-10-26T13:58:42Z</time>
      </trkpt>
      <trkpt lat="43.25243" lon="-0.72254">
        <ele>197.914261</ele>
        <time>2018-10-26T13:58:50Z</time>
      </trkpt>
      <trkpt lat="43.25297" lon="-0.72295">
        <ele>196.181961</ele>
        <time>2018-10-26T13:59:00Z</time>
      </trkpt>
      <trkpt lat="43.25317" lon="-0.72316">
        <ele>196.02124</ele>
        <time>2018-10-26T13:59:04Z</time>
      </trkpt>
      <trkpt lat="43.25339" lon="-0.72334">
        <ele>196.076248</ele>
        <time>2018-10-26T13:59:08Z</time>
      </trkpt>
      <trkpt lat="43.25363" lon="-0.72358">
        <ele>196.677505</ele>
        <time>2018-10-26T13:59:13Z</time>
      </trkpt>
      <trkpt lat="43.25453" lon="-0.72429">
        <ele>198.319992</ele>
        <time>2018-10-26T13:59:30Z</time>
      </trkpt>
      <trkpt lat="43.25474" lon="-0.72439">
        <ele>198.357498</ele>
        <time>2018-10-26T13:59:34Z</time>
      </trkpt>
      <trkpt lat="43.25524" lon="-0.7247">
        <ele>199.268753</ele>
        <time>2018-10-26T13:59:43Z</time>
      </trkpt>
      <trkpt lat="43.25573" lon="-0.72489">
        <ele>199.798752</ele>
        <time>2018-10-26T13:59:52Z</time>
      </trkpt>
      <trkpt lat="43.25627" lon="-0.72529">
        <ele>200.994995</ele>
        <time>2018-10-26T14:00:02Z</time>
      </trkpt>
      <trkpt lat="43.25647" lon="-0.72538">
        <ele>200.982498</ele>
        <time>2018-10-26T14:00:06Z</time>
      </trkpt>
      <trkpt lat="43.25655" lon="-0.72553">
        <ele>201.048126</ele>
        <time>2018-10-26T14:00:10Z</time>
      </trkpt>
      <trkpt lat="43.25626" lon="-0.72638">
        <ele>202.203934</ele>
        <time>2018-10-26T14:00:22Z</time>
      </trkpt>
      <trkpt lat="43.25572" lon="-0.72765">
        <ele>203</ele>
        <time>2018-10-26T14:00:40Z</time>
      </trkpt>
      <trkpt lat="43.25571" lon="-0.72793">
        <ele>203</ele>
        <time>2018-10-26T14:00:44Z</time>
      </trkpt>
      <trkpt lat="43.25583" lon="-0.72817">
        <ele>203</ele>
        <time>2018-10-26T14:00:48Z</time>
      </trkpt>
      <trkpt lat="43.25573" lon="-0.72838">
        <ele>203</ele>
        <time>2018-10-26T14:00:52Z</time>
      </trkpt>
      <trkpt lat="43.25521" lon="-0.72896">
        <ele>202.009964</ele>
        <time>2018-10-26T14:01:05Z</time>
      </trkpt>
      <trkpt lat="43.25465" lon="-0.72912">
        <ele>197.251877</ele>
        <time>2018-10-26T14:01:14Z</time>
      </trkpt>
      <trkpt lat="43.25442" lon="-0.72935">
        <ele>194.195007</ele>
        <time>2018-10-26T14:01:18Z</time>
      </trkpt>
      <trkpt lat="43.25413" lon="-0.72978">
        <ele>189.712494</ele>
        <time>2018-10-26T14:01:30Z</time>
      </trkpt>
      <trkpt lat="43.25404" lon="-0.73011">
        <ele>186.961884</ele>
        <time>2018-10-26T14:01:35Z</time>
      </trkpt>
      <trkpt lat="43.25402" lon="-0.73054">
        <ele>183.378754</ele>
        <time>2018-10-26T14:01:40Z</time>
      </trkpt>
      <trkpt lat="43.25409" lon="-0.73111">
        <ele>180.518005</ele>
        <time>2018-10-26T14:01:49Z</time>
      </trkpt>
      <trkpt lat="43.25416" lon="-0.7314">
        <ele>179.60083</ele>
        <time>2018-10-26T14:01:54Z</time>
      </trkpt>
      <trkpt lat="43.25427" lon="-0.73164">
        <ele>179.470871</ele>
        <time>2018-10-26T14:01:58Z</time>
      </trkpt>
      <trkpt lat="43.25401" lon="-0.73174">
        <ele>178.400513</ele>
        <time>2018-10-26T14:02:07Z</time>
      </trkpt>
      <trkpt lat="43.25362" lon="-0.73215">
        <ele>179.151871</ele>
        <time>2018-10-26T14:03:11Z</time>
      </trkpt>
      <trkpt lat="43.25364" lon="-0.73237">
        <ele>179.462509</ele>
        <time>2018-10-26T14:06:26Z</time>
      </trkpt>
      <trkpt lat="43.2536" lon="-0.73265">
        <ele>180.493881</ele>
        <time>2018-10-26T14:06:36Z</time>
      </trkpt>
      <trkpt lat="43.25356" lon="-0.73278">
        <ele>181.399063</ele>
        <time>2018-10-26T14:06:40Z</time>
      </trkpt>
      <trkpt lat="43.25356" lon="-0.733">
        <ele>182.692001</ele>
        <time>2018-10-26T14:06:48Z</time>
      </trkpt>
      <trkpt lat="43.25354" lon="-0.73312">
        <ele>183.544266</ele>
        <time>2018-10-26T14:06:52Z</time>
      </trkpt>
      <trkpt lat="43.25336" lon="-0.73336">
        <ele>185.497635</ele>
        <time>2018-10-26T14:07:00Z</time>
      </trkpt>
      <trkpt lat="43.25294" lon="-0.73402">
        <ele>191.545288</ele>
        <time>2018-10-26T14:07:14Z</time>
      </trkpt>
      <trkpt lat="43.25225" lon="-0.73536">
        <ele>199.722198</ele>
        <time>2018-10-26T14:07:40Z</time>
      </trkpt>
      <trkpt lat="43.25207" lon="-0.7356">
        <ele>200.255005</ele>
        <time>2018-10-26T14:07:44Z</time>
      </trkpt>
      <trkpt lat="43.25147" lon="-0.73671">
        <ele>201.987473</ele>
        <time>2018-10-26T14:08:02Z</time>
      </trkpt>
      <trkpt lat="43.25114" lon="-0.73724">
        <ele>202</ele>
        <time>2018-10-26T14:08:11Z</time>
      </trkpt>
      <trkpt lat="43.25078" lon="-0.73805">
        <ele>203.261719</ele>
        <time>2018-10-26T14:08:23Z</time>
      </trkpt>
      <trkpt lat="43.25034" lon="-0.73941">
        <ele>208.443192</ele>
        <time>2018-10-26T14:08:42Z</time>
      </trkpt>
      <trkpt lat="43.25012" lon="-0.73992">
        <ele>212.626266</ele>
        <time>2018-10-26T14:08:51Z</time>
      </trkpt>
      <trkpt lat="43.25002" lon="-0.74019">
        <ele>214.376053</ele>
        <time>2018-10-26T14:08:55Z</time>
      </trkpt>
      <trkpt lat="43.24999" lon="-0.74048">
        <ele>215.600449</ele>
        <time>2018-10-26T14:08:59Z</time>
      </trkpt>
      <trkpt lat="43.24984" lon="-0.74111">
        <ele>219.112518</ele>
        <time>2018-10-26T14:09:08Z</time>
      </trkpt>
      <trkpt lat="43.24981" lon="-0.74139">
        <ele>219.793976</ele>
        <time>2018-10-26T14:09:12Z</time>
      </trkpt>
      <trkpt lat="43.24969" lon="-0.7416">
        <ele>221.983749</ele>
        <time>2018-10-26T14:09:16Z</time>
      </trkpt>
      <trkpt lat="43.24951" lon="-0.74219">
        <ele>222.800415</ele>
        <time>2018-10-26T14:09:24Z</time>
      </trkpt>
      <trkpt lat="43.24947" lon="-0.74241">
        <ele>222.736618</ele>
        <time>2018-10-26T14:09:28Z</time>
      </trkpt>
      <trkpt lat="43.2493" lon="-0.7431">
        <ele>223.740005</ele>
        <time>2018-10-26T14:09:38Z</time>
      </trkpt>
      <trkpt lat="43.24925" lon="-0.74341">
        <ele>224.117355</ele>
        <time>2018-10-26T14:09:42Z</time>
      </trkpt>
      <trkpt lat="43.24917" lon="-0.74371">
        <ele>225.165039</ele>
        <time>2018-10-26T14:09:46Z</time>
      </trkpt>
      <trkpt lat="43.24907" lon="-0.744">
        <ele>226.796249</ele>
        <time>2018-10-26T14:09:50Z</time>
      </trkpt>
      <trkpt lat="43.24894" lon="-0.74422">
        <ele>228.912506</ele>
        <time>2018-10-26T14:09:54Z</time>
      </trkpt>
      <trkpt lat="43.24876" lon="-0.74431">
        <ele>231.132507</ele>
        <time>2018-10-26T14:09:58Z</time>
      </trkpt>
      <trkpt lat="43.24851" lon="-0.74449">
        <ele>234.558105</ele>
        <time>2018-10-26T14:10:03Z</time>
      </trkpt>
      <trkpt lat="43.24831" lon="-0.74474">
        <ele>235.356186</ele>
        <time>2018-10-26T14:10:08Z</time>
      </trkpt>
      <trkpt lat="43.2479" lon="-0.74508">
        <ele>237.249176</ele>
        <time>2018-10-26T14:10:16Z</time>
      </trkpt>
      <trkpt lat="43.24763" lon="-0.74537">
        <ele>239.059586</ele>
        <time>2018-10-26T14:10:24Z</time>
      </trkpt>
      <trkpt lat="43.2472" lon="-0.74573">
        <ele>243.104095</ele>
        <time>2018-10-26T14:10:36Z</time>
      </trkpt>
      <trkpt lat="43.24705" lon="-0.74583">
        <ele>243.120682</ele>
        <time>2018-10-26T14:10:40Z</time>
      </trkpt>
      <trkpt lat="43.24676" lon="-0.74563">
        <ele>243.398743</ele>
        <time>2018-10-26T14:10:50Z</time>
      </trkpt>
      <trkpt lat="43.24666" lon="-0.74569">
        <ele>242.844711</ele>
        <time>2018-10-26T14:10:54Z</time>
      </trkpt>
      <trkpt lat="43.24629" lon="-0.74615">
        <ele>241.214294</ele>
        <time>2018-10-26T14:11:12Z</time>
      </trkpt>
      <trkpt lat="43.24615" lon="-0.74642">
        <ele>240.716888</ele>
        <time>2018-10-26T14:11:16Z</time>
      </trkpt>
      <trkpt lat="43.24611" lon="-0.74676">
        <ele>240.818512</ele>
        <time>2018-10-26T14:11:20Z</time>
      </trkpt>
      <trkpt lat="43.24615" lon="-0.74708">
        <ele>241.69223</ele>
        <time>2018-10-26T14:11:24Z</time>
      </trkpt>
      <trkpt lat="43.24596" lon="-0.7473">
        <ele>242.158859</ele>
        <time>2018-10-26T14:11:28Z</time>
      </trkpt>
      <trkpt lat="43.24573" lon="-0.74746">
        <ele>241.860001</ele>
        <time>2018-10-26T14:11:32Z</time>
      </trkpt>
      <trkpt lat="43.24549" lon="-0.74754">
        <ele>240.719055</ele>
        <time>2018-10-26T14:11:36Z</time>
      </trkpt>
      <trkpt lat="43.24522" lon="-0.74781">
        <ele>240.854996</ele>
        <time>2018-10-26T14:11:41Z</time>
      </trkpt>
      <trkpt lat="43.24506" lon="-0.74809">
        <ele>241.469742</ele>
        <time>2018-10-26T14:11:45Z</time>
      </trkpt>
      <trkpt lat="43.24457" lon="-0.74841">
        <ele>241.945221</ele>
        <time>2018-10-26T14:11:54Z</time>
      </trkpt>
      <trkpt lat="43.24435" lon="-0.7486">
        <ele>242.695007</ele>
        <time>2018-10-26T14:11:59Z</time>
      </trkpt>
      <trkpt lat="43.24413" lon="-0.74855">
        <ele>243.664993</ele>
        <time>2018-10-26T14:12:04Z</time>
      </trkpt>
      <trkpt lat="43.24404" lon="-0.74838">
        <ele>244.131409</ele>
        <time>2018-10-26T14:12:08Z</time>
      </trkpt>
      <trkpt lat="43.24377" lon="-0.74743">
        <ele>244.941406</ele>
        <time>2018-10-26T14:12:21Z</time>
      </trkpt>
      <trkpt lat="43.24356" lon="-0.74725">
        <ele>245.798752</ele>
        <time>2018-10-26T14:12:26Z</time>
      </trkpt>
      <trkpt lat="43.2433" lon="-0.74727">
        <ele>246.496246</ele>
        <time>2018-10-26T14:12:31Z</time>
      </trkpt>
      <trkpt lat="43.24308" lon="-0.74714">
        <ele>245.911987</ele>
        <time>2018-10-26T14:12:36Z</time>
      </trkpt>
      <trkpt lat="43.24288" lon="-0.74713">
        <ele>245.220673</ele>
        <time>2018-10-26T14:12:40Z</time>
      </trkpt>
      <trkpt lat="43.2425" lon="-0.7473">
        <ele>244.900009</ele>
        <time>2018-10-26T14:12:49Z</time>
      </trkpt>
      <trkpt lat="43.24229" lon="-0.74723">
        <ele>243.567505</ele>
        <time>2018-10-26T14:12:53Z</time>
      </trkpt>
      <trkpt lat="43.24209" lon="-0.74722">
        <ele>243.547501</ele>
        <time>2018-10-26T14:12:57Z</time>
      </trkpt>
      <trkpt lat="43.24184" lon="-0.74736">
        <ele>243.881989</ele>
        <time>2018-10-26T14:13:02Z</time>
      </trkpt>
      <trkpt lat="43.24171" lon="-0.74751">
        <ele>244.064804</ele>
        <time>2018-10-26T14:13:06Z</time>
      </trkpt>
      <trkpt lat="43.24178" lon="-0.74767">
        <ele>243.509521</ele>
        <time>2018-10-26T14:13:11Z</time>
      </trkpt>
      <trkpt lat="43.24198" lon="-0.74777">
        <ele>243.747803</ele>
        <time>2018-10-26T14:13:15Z</time>
      </trkpt>
      <trkpt lat="43.24216" lon="-0.74796">
        <ele>244.175217</ele>
        <time>2018-10-26T14:13:19Z</time>
      </trkpt>
      <trkpt lat="43.24231" lon="-0.7482">
        <ele>243.86467</ele>
        <time>2018-10-26T14:13:23Z</time>
      </trkpt>
      <trkpt lat="43.24238" lon="-0.74854">
        <ele>243.066254</ele>
        <time>2018-10-26T14:13:28Z</time>
      </trkpt>
      <trkpt lat="43.24247" lon="-0.74878">
        <ele>243.401871</ele>
        <time>2018-10-26T14:13:32Z</time>
      </trkpt>
      <trkpt lat="43.24241" lon="-0.74913">
        <ele>241.963043</ele>
        <time>2018-10-26T14:13:36Z</time>
      </trkpt>
      <trkpt lat="43.24211" lon="-0.75004">
        <ele>233.55957</ele>
        <time>2018-10-26T14:13:46Z</time>
      </trkpt>
      <trkpt lat="43.24207" lon="-0.75039">
        <ele>230.687607</ele>
        <time>2018-10-26T14:13:50Z</time>
      </trkpt>
      <trkpt lat="43.24191" lon="-0.75079">
        <ele>227.135086</ele>
        <time>2018-10-26T14:13:55Z</time>
      </trkpt>
      <trkpt lat="43.24149" lon="-0.7513">
        <ele>217.574524</ele>
        <time>2018-10-26T14:14:04Z</time>
      </trkpt>
      <trkpt lat="43.2413" lon="-0.75156">
        <ele>213.549942</ele>
        <time>2018-10-26T14:14:08Z</time>
      </trkpt>
      <trkpt lat="43.24106" lon="-0.75173">
        <ele>206.40712</ele>
        <time>2018-10-26T14:14:12Z</time>
      </trkpt>
      <trkpt lat="43.24099" lon="-0.75214">
        <ele>204.365494</ele>
        <time>2018-10-26T14:14:17Z</time>
      </trkpt>
      <trkpt lat="43.24073" lon="-0.75263">
        <ele>195.842346</ele>
        <time>2018-10-26T14:14:25Z</time>
      </trkpt>
      <trkpt lat="43.24063" lon="-0.75288">
        <ele>190.231567</ele>
        <time>2018-10-26T14:14:29Z</time>
      </trkpt>
      <trkpt lat="43.24062" lon="-0.75312">
        <ele>185.306931</ele>
        <time>2018-10-26T14:14:34Z</time>
      </trkpt>
      <trkpt lat="43.24067" lon="-0.75326">
        <ele>183.116013</ele>
        <time>2018-10-26T14:14:38Z</time>
      </trkpt>
      <trkpt lat="43.24096" lon="-0.75351">
        <ele>180.941666</ele>
        <time>2018-10-26T14:14:46Z</time>
      </trkpt>
      <trkpt lat="43.24111" lon="-0.75349">
        <ele>181.544815</ele>
        <time>2018-10-26T14:14:50Z</time>
      </trkpt>
      <trkpt lat="43.24117" lon="-0.7536">
        <ele>179.563156</ele>
        <time>2018-10-26T14:14:54Z</time>
      </trkpt>
      <trkpt lat="43.24106" lon="-0.75377">
        <ele>176.530289</ele>
        <time>2018-10-26T14:14:58Z</time>
      </trkpt>
      <trkpt lat="43.24059" lon="-0.75396">
        <ele>176.08606</ele>
        <time>2018-10-26T14:15:06Z</time>
      </trkpt>
      <trkpt lat="43.24047" lon="-0.75394">
        <ele>176.138397</ele>
        <time>2018-10-26T14:15:10Z</time>
      </trkpt>
      <trkpt lat="43.24032" lon="-0.75417">
        <ele>175.945862</ele>
        <time>2018-10-26T14:15:14Z</time>
      </trkpt>
      <trkpt lat="43.24036" lon="-0.7544">
        <ele>175.678909</ele>
        <time>2018-10-26T14:15:18Z</time>
      </trkpt>
      <trkpt lat="43.24031" lon="-0.75453">
        <ele>175.874451</ele>
        <time>2018-10-26T14:15:22Z</time>
      </trkpt>
      <trkpt lat="43.24037" lon="-0.75462">
        <ele>175.527206</ele>
        <time>2018-10-26T14:15:27Z</time>
      </trkpt>
      <trkpt lat="43.24048" lon="-0.7547">
        <ele>174.965515</ele>
        <time>2018-10-26T14:15:32Z</time>
      </trkpt>
      <trkpt lat="43.24059" lon="-0.75485">
        <ele>174.664093</ele>
        <time>2018-10-26T14:15:36Z</time>
      </trkpt>
      <trkpt lat="43.24047" lon="-0.755">
        <ele>175.665115</ele>
        <time>2018-10-26T14:15:41Z</time>
      </trkpt>
      <trkpt lat="43.2402" lon="-0.75522">
        <ele>177.251572</ele>
        <time>2018-10-26T14:15:58Z</time>
      </trkpt>
      <trkpt lat="43.24027" lon="-0.75524">
        <ele>177.152603</ele>
        <time>2018-10-26T14:16:03Z</time>
      </trkpt>
      <trkpt lat="43.24048" lon="-0.7552">
        <ele>176.090866</ele>
        <time>2018-10-26T14:16:07Z</time>
      </trkpt>
      <trkpt lat="43.24069" lon="-0.75531">
        <ele>175.606262</ele>
        <time>2018-10-26T14:16:12Z</time>
      </trkpt>
      <trkpt lat="43.24108" lon="-0.75559">
        <ele>174.285629</ele>
        <time>2018-10-26T14:16:20Z</time>
      </trkpt>
      <trkpt lat="43.24153" lon="-0.75526">
        <ele>169.622711</ele>
        <time>2018-10-26T14:16:30Z</time>
      </trkpt>
      <trkpt lat="43.2418" lon="-0.75516">
        <ele>168.406876</ele>
        <time>2018-10-26T14:16:38Z</time>
      </trkpt>
      <trkpt lat="43.24224" lon="-0.75519">
        <ele>167.764572</ele>
        <time>2018-10-26T14:16:47Z</time>
      </trkpt>
      <trkpt lat="43.2425" lon="-0.75533">
        <ele>168.202499</ele>
        <time>2018-10-26T14:16:52Z</time>
      </trkpt>
      <trkpt lat="43.24267" lon="-0.75559">
        <ele>170.544998</ele>
        <time>2018-10-26T14:16:56Z</time>
      </trkpt>
      <trkpt lat="43.2428" lon="-0.75562">
        <ele>171.264999</ele>
        <time>2018-10-26T14:17:00Z</time>
      </trkpt>
      <trkpt lat="43.24298" lon="-0.75554">
        <ele>171.532501</ele>
        <time>2018-10-26T14:17:05Z</time>
      </trkpt>
      <trkpt lat="43.2431" lon="-0.75562">
        <ele>172.850006</ele>
        <time>2018-10-26T14:17:09Z</time>
      </trkpt>
      <trkpt lat="43.24325" lon="-0.75563">
        <ele>173.850006</ele>
        <time>2018-10-26T14:17:13Z</time>
      </trkpt>
      <trkpt lat="43.24337" lon="-0.75553">
        <ele>173.979996</ele>
        <time>2018-10-26T14:17:18Z</time>
      </trkpt>
      <trkpt lat="43.2435" lon="-0.75553">
        <ele>174.727493</ele>
        <time>2018-10-26T14:17:23Z</time>
      </trkpt>
      <trkpt lat="43.24375" lon="-0.75584">
        <ele>178.425003</ele>
        <time>2018-10-26T14:17:36Z</time>
      </trkpt>
      <trkpt lat="43.24396" lon="-0.75568">
        <ele>178.805893</ele>
        <time>2018-10-26T14:17:45Z</time>
      </trkpt>
      <trkpt lat="43.24411" lon="-0.75561">
        <ele>179.516998</ele>
        <time>2018-10-26T14:17:49Z</time>
      </trkpt>
      <trkpt lat="43.24431" lon="-0.75556">
        <ele>180.798752</ele>
        <time>2018-10-26T14:17:54Z</time>
      </trkpt>
      <trkpt lat="43.24501" lon="-0.7559">
        <ele>185.480621</ele>
        <time>2018-10-26T14:18:08Z</time>
      </trkpt>
      <trkpt lat="43.24516" lon="-0.75608">
        <ele>186.951248</ele>
        <time>2018-10-26T14:18:12Z</time>
      </trkpt>
      <trkpt lat="43.2454" lon="-0.75629">
        <ele>188.172501</ele>
        <time>2018-10-26T14:18:16Z</time>
      </trkpt>
      <trkpt lat="43.24544" lon="-0.75658">
        <ele>189.247498</ele>
        <time>2018-10-26T14:18:20Z</time>
      </trkpt>
      <trkpt lat="43.2455" lon="-0.75685">
        <ele>190.200333</ele>
        <time>2018-10-26T14:18:24Z</time>
      </trkpt>
      <trkpt lat="43.2456" lon="-0.75714">
        <ele>191.410904</ele>
        <time>2018-10-26T14:18:28Z</time>
      </trkpt>
      <trkpt lat="43.24583" lon="-0.75731">
        <ele>192.463745</ele>
        <time>2018-10-26T14:18:32Z</time>
      </trkpt>
      <trkpt lat="43.24622" lon="-0.75769">
        <ele>195.1474</ele>
        <time>2018-10-26T14:18:41Z</time>
      </trkpt>
      <trkpt lat="43.2465" lon="-0.75804">
        <ele>198.371475</ele>
        <time>2018-10-26T14:18:50Z</time>
      </trkpt>
      <trkpt lat="43.24661" lon="-0.75815">
        <ele>199.192886</ele>
        <time>2018-10-26T14:18:54Z</time>
      </trkpt>
      <trkpt lat="43.24678" lon="-0.75822">
        <ele>200.032486</ele>
        <time>2018-10-26T14:18:58Z</time>
      </trkpt>
      <trkpt lat="43.24693" lon="-0.75836">
        <ele>201.332504</ele>
        <time>2018-10-26T14:19:02Z</time>
      </trkpt>
      <trkpt lat="43.24724" lon="-0.75882">
        <ele>203.24736</ele>
        <time>2018-10-26T14:19:10Z</time>
      </trkpt>
      <trkpt lat="43.2474" lon="-0.75901">
        <ele>203.231873</ele>
        <time>2018-10-26T14:19:14Z</time>
      </trkpt>
      <trkpt lat="43.24754" lon="-0.75922">
        <ele>202.632507</ele>
        <time>2018-10-26T14:19:19Z</time>
      </trkpt>
      <trkpt lat="43.24769" lon="-0.7596">
        <ele>202.126251</ele>
        <time>2018-10-26T14:19:27Z</time>
      </trkpt>
      <trkpt lat="43.24782" lon="-0.75985">
        <ele>201.324997</ele>
        <time>2018-10-26T14:19:32Z</time>
      </trkpt>
      <trkpt lat="43.24805" lon="-0.75993">
        <ele>198.848053</ele>
        <time>2018-10-26T14:19:37Z</time>
      </trkpt>
      <trkpt lat="43.24849" lon="-0.76049">
        <ele>191.768204</ele>
        <time>2018-10-26T14:19:46Z</time>
      </trkpt>
      <trkpt lat="43.24863" lon="-0.76073">
        <ele>188.543839</ele>
        <time>2018-10-26T14:19:50Z</time>
      </trkpt>
      <trkpt lat="43.24872" lon="-0.76095">
        <ele>185.236603</ele>
        <time>2018-10-26T14:19:54Z</time>
      </trkpt>
      <trkpt lat="43.24898" lon="-0.76131">
        <ele>176.776779</ele>
        <time>2018-10-26T14:20:02Z</time>
      </trkpt>
      <trkpt lat="43.24918" lon="-0.76149">
        <ele>171.04155</ele>
        <time>2018-10-26T14:20:13Z</time>
      </trkpt>
      <trkpt lat="43.24924" lon="-0.76168">
        <ele>168.668121</ele>
        <time>2018-10-26T14:20:18Z</time>
      </trkpt>
      <trkpt lat="43.24934" lon="-0.76184">
        <ele>164.891693</ele>
        <time>2018-10-26T14:20:22Z</time>
      </trkpt>
      <trkpt lat="43.24935" lon="-0.76199">
        <ele>163.94133</ele>
        <time>2018-10-26T14:20:26Z</time>
      </trkpt>
      <trkpt lat="43.24912" lon="-0.76246">
        <ele>167.003174</ele>
        <time>2018-10-26T14:20:35Z</time>
      </trkpt>
      <trkpt lat="43.24913" lon="-0.76264">
        <ele>164.734024</ele>
        <time>2018-10-26T14:20:39Z</time>
      </trkpt>
      <trkpt lat="43.24898" lon="-0.76295">
        <ele>163.180374</ele>
        <time>2018-10-26T14:20:44Z</time>
      </trkpt>
      <trkpt lat="43.24886" lon="-0.76316">
        <ele>166.582977</ele>
        <time>2018-10-26T14:20:48Z</time>
      </trkpt>
      <trkpt lat="43.24878" lon="-0.76342">
        <ele>167.789078</ele>
        <time>2018-10-26T14:20:53Z</time>
      </trkpt>
      <trkpt lat="43.2487" lon="-0.76361">
        <ele>168.451279</ele>
        <time>2018-10-26T14:20:58Z</time>
      </trkpt>
      <trkpt lat="43.2487" lon="-0.76373">
        <ele>168.869492</ele>
        <time>2018-10-26T14:21:03Z</time>
      </trkpt>
      <trkpt lat="43.24882" lon="-0.76367">
        <ele>166.287506</ele>
        <time>2018-10-26T14:21:08Z</time>
      </trkpt>
      <trkpt lat="43.24894" lon="-0.76355">
        <ele>163.58754</ele>
        <time>2018-10-26T14:21:12Z</time>
      </trkpt>
      <trkpt lat="43.24948" lon="-0.76316">
        <ele>162.159164</ele>
        <time>2018-10-26T14:21:26Z</time>
      </trkpt>
      <trkpt lat="43.24957" lon="-0.76301">
        <ele>160.972504</ele>
        <time>2018-10-26T14:21:30Z</time>
      </trkpt>
      <trkpt lat="43.24987" lon="-0.76306">
        <ele>161.736343</ele>
        <time>2018-10-26T14:21:34Z</time>
      </trkpt>
      <trkpt lat="43.25002" lon="-0.76323">
        <ele>161.700714</ele>
        <time>2018-10-26T14:21:38Z</time>
      </trkpt>
      <trkpt lat="43.25007" lon="-0.76348">
        <ele>162.130814</ele>
        <time>2018-10-26T14:21:42Z</time>
      </trkpt>
      <trkpt lat="43.25017" lon="-0.76375">
        <ele>161.691605</ele>
        <time>2018-10-26T14:21:46Z</time>
      </trkpt>
      <trkpt lat="43.25031" lon="-0.76438">
        <ele>160.6577</ele>
        <time>2018-10-26T14:21:55Z</time>
      </trkpt>
      <trkpt lat="43.25033" lon="-0.7646">
        <ele>160.116028</ele>
        <time>2018-10-26T14:22:00Z</time>
      </trkpt>
      <trkpt lat="43.2503" lon="-0.76475">
        <ele>160.651749</ele>
        <time>2018-10-26T14:22:04Z</time>
      </trkpt>
      <trkpt lat="43.25025" lon="-0.76482">
        <ele>161.817703</ele>
        <time>2018-10-26T14:22:08Z</time>
      </trkpt>
      <trkpt lat="43.25013" lon="-0.76515">
        <ele>165.336716</ele>
        <time>2018-10-26T14:22:16Z</time>
      </trkpt>
      <trkpt lat="43.25003" lon="-0.76524">
        <ele>168.512772</ele>
        <time>2018-10-26T14:22:20Z</time>
      </trkpt>
      <trkpt lat="43.24993" lon="-0.76521">
        <ele>171.091141</ele>
        <time>2018-10-26T14:22:24Z</time>
      </trkpt>
      <trkpt lat="43.2498" lon="-0.76509">
        <ele>174.049652</ele>
        <time>2018-10-26T14:22:29Z</time>
      </trkpt>
      <trkpt lat="43.24969" lon="-0.76463">
        <ele>174.121765</ele>
        <time>2018-10-26T14:22:38Z</time>
      </trkpt>
      <trkpt lat="43.2496" lon="-0.76451">
        <ele>175.094574</ele>
        <time>2018-10-26T14:22:42Z</time>
      </trkpt>
      <trkpt lat="43.24934" lon="-0.76448">
        <ele>178.583969</ele>
        <time>2018-10-26T14:22:50Z</time>
      </trkpt>
      <trkpt lat="43.24923" lon="-0.76457">
        <ele>180.231369</ele>
        <time>2018-10-26T14:22:54Z</time>
      </trkpt>
      <trkpt lat="43.24921" lon="-0.76472">
        <ele>182.3284</ele>
        <time>2018-10-26T14:22:58Z</time>
      </trkpt>
      <trkpt lat="43.24924" lon="-0.76492">
        <ele>184.556244</ele>
        <time>2018-10-26T14:23:03Z</time>
      </trkpt>
      <trkpt lat="43.24938" lon="-0.7654">
        <ele>188.122498</ele>
        <time>2018-10-26T14:23:12Z</time>
      </trkpt>
      <trkpt lat="43.24944" lon="-0.76569">
        <ele>190.905884</ele>
        <time>2018-10-26T14:23:17Z</time>
      </trkpt>
      <trkpt lat="43.24945" lon="-0.76592">
        <ele>194.408142</ele>
        <time>2018-10-26T14:23:21Z</time>
      </trkpt>
      <trkpt lat="43.24951" lon="-0.76612">
        <ele>195.439926</ele>
        <time>2018-10-26T14:23:25Z</time>
      </trkpt>
      <trkpt lat="43.24955" lon="-0.76638">
        <ele>196.932419</ele>
        <time>2018-10-26T14:23:29Z</time>
      </trkpt>
      <trkpt lat="43.24955" lon="-0.76664">
        <ele>199.458969</ele>
        <time>2018-10-26T14:23:33Z</time>
      </trkpt>
      <trkpt lat="43.2495" lon="-0.76722">
        <ele>202.659698</ele>
        <time>2018-10-26T14:23:42Z</time>
      </trkpt>
      <trkpt lat="43.24932" lon="-0.76799">
        <ele>204.890778</ele>
        <time>2018-10-26T14:23:54Z</time>
      </trkpt>
      <trkpt lat="43.24935" lon="-0.76835">
        <ele>202.406784</ele>
        <time>2018-10-26T14:23:59Z</time>
      </trkpt>
      <trkpt lat="43.24931" lon="-0.76859">
        <ele>202.096603</ele>
        <time>2018-10-26T14:24:03Z</time>
      </trkpt>
      <trkpt lat="43.24911" lon="-0.76917">
        <ele>203.555466</ele>
        <time>2018-10-26T14:24:12Z</time>
      </trkpt>
      <trkpt lat="43.24908" lon="-0.76944">
        <ele>205.126877</ele>
        <time>2018-10-26T14:24:16Z</time>
      </trkpt>
      <trkpt lat="43.24901" lon="-0.76971">
        <ele>207.273758</ele>
        <time>2018-10-26T14:24:20Z</time>
      </trkpt>
      <trkpt lat="43.24865" lon="-0.76986">
        <ele>209.829681</ele>
        <time>2018-10-26T14:24:25Z</time>
      </trkpt>
      <trkpt lat="43.24825" lon="-0.76992">
        <ele>207.996872</ele>
        <time>2018-10-26T14:24:29Z</time>
      </trkpt>
      <trkpt lat="43.24733" lon="-0.76959">
        <ele>195.100281</ele>
        <time>2018-10-26T14:24:38Z</time>
      </trkpt>
      <trkpt lat="43.24687" lon="-0.76956">
        <ele>186.997696</ele>
        <time>2018-10-26T14:24:42Z</time>
      </trkpt>
      <trkpt lat="43.24657" lon="-0.76969">
        <ele>182.574265</ele>
        <time>2018-10-26T14:24:46Z</time>
      </trkpt>
      <trkpt lat="43.24596" lon="-0.77044">
        <ele>192.560379</ele>
        <time>2018-10-26T14:24:58Z</time>
      </trkpt>
      <trkpt lat="43.24585" lon="-0.77055">
        <ele>194.754303</ele>
        <time>2018-10-26T14:25:02Z</time>
      </trkpt>
      <trkpt lat="43.2457" lon="-0.7708">
        <ele>197.308197</ele>
        <time>2018-10-26T14:25:10Z</time>
      </trkpt>
      <trkpt lat="43.24559" lon="-0.77091">
        <ele>198.135696</ele>
        <time>2018-10-26T14:25:14Z</time>
      </trkpt>
      <trkpt lat="43.24542" lon="-0.77101">
        <ele>199.051895</ele>
        <time>2018-10-26T14:25:19Z</time>
      </trkpt>
      <trkpt lat="43.24525" lon="-0.77092">
        <ele>201.779861</ele>
        <time>2018-10-26T14:25:24Z</time>
      </trkpt>
      <trkpt lat="43.24514" lon="-0.77077">
        <ele>203.759323</ele>
        <time>2018-10-26T14:25:32Z</time>
      </trkpt>
      <trkpt lat="43.245" lon="-0.77052">
        <ele>206.427505</ele>
        <time>2018-10-26T14:25:40Z</time>
      </trkpt>
      <trkpt lat="43.24488" lon="-0.77038">
        <ele>208.449646</ele>
        <time>2018-10-26T14:25:44Z</time>
      </trkpt>
      <trkpt lat="43.24474" lon="-0.77028">
        <ele>210.600845</ele>
        <time>2018-10-26T14:25:48Z</time>
      </trkpt>
      <trkpt lat="43.24457" lon="-0.77021">
        <ele>212.56192</ele>
        <time>2018-10-26T14:25:52Z</time>
      </trkpt>
      <trkpt lat="43.24439" lon="-0.77019">
        <ele>214.310623</ele>
        <time>2018-10-26T14:25:56Z</time>
      </trkpt>
      <trkpt lat="43.24429" lon="-0.77012">
        <ele>215.860779</ele>
        <time>2018-10-26T14:26:01Z</time>
      </trkpt>
      <trkpt lat="43.24431" lon="-0.77002">
        <ele>216.679306</ele>
        <time>2018-10-26T14:26:05Z</time>
      </trkpt>
      <trkpt lat="43.24446" lon="-0.76985">
        <ele>216.867905</ele>
        <time>2018-10-26T14:26:14Z</time>
      </trkpt>
      <trkpt lat="43.24448" lon="-0.76973">
        <ele>217.842575</ele>
        <time>2018-10-26T14:26:18Z</time>
      </trkpt>
      <trkpt lat="43.24463" lon="-0.76939">
        <ele>220.361816</ele>
        <time>2018-10-26T14:26:31Z</time>
      </trkpt>
      <trkpt lat="43.24473" lon="-0.76847">
        <ele>230.542694</ele>
        <time>2018-10-26T14:27:01Z</time>
      </trkpt>
      <trkpt lat="43.2448" lon="-0.76832">
        <ele>231.520004</ele>
        <time>2018-10-26T14:27:05Z</time>
      </trkpt>
      <trkpt lat="43.24486" lon="-0.76785">
        <ele>235.613632</ele>
        <time>2018-10-26T14:27:19Z</time>
      </trkpt>
      <trkpt lat="43.24474" lon="-0.76769">
        <ele>238.133743</ele>
        <time>2018-10-26T14:27:33Z</time>
      </trkpt>
      <trkpt lat="43.24465" lon="-0.76766">
        <ele>238.947495</ele>
        <time>2018-10-26T14:27:37Z</time>
      </trkpt>
      <trkpt lat="43.24459" lon="-0.76755">
        <ele>239.919998</ele>
        <time>2018-10-26T14:27:42Z</time>
      </trkpt>
      <trkpt lat="43.24464" lon="-0.76701">
        <ele>241.130081</ele>
        <time>2018-10-26T14:27:55Z</time>
      </trkpt>
      <trkpt lat="43.24457" lon="-0.76697">
        <ele>241.845963</ele>
        <time>2018-10-26T14:27:59Z</time>
      </trkpt>
      <trkpt lat="43.24455" lon="-0.76686">
        <ele>242.225266</ele>
        <time>2018-10-26T14:28:04Z</time>
      </trkpt>
      <trkpt lat="43.24461" lon="-0.7666">
        <ele>241.937912</ele>
        <time>2018-10-26T14:28:12Z</time>
      </trkpt>
      <trkpt lat="43.24464" lon="-0.76638">
        <ele>241.758301</ele>
        <time>2018-10-26T14:28:17Z</time>
      </trkpt>
      <trkpt lat="43.24468" lon="-0.76624">
        <ele>241.203232</ele>
        <time>2018-10-26T14:28:21Z</time>
      </trkpt>
      <trkpt lat="43.24473" lon="-0.7659">
        <ele>240.31546</ele>
        <time>2018-10-26T14:28:26Z</time>
      </trkpt>
      <trkpt lat="43.24486" lon="-0.76544">
        <ele>238.085617</ele>
        <time>2018-10-26T14:28:34Z</time>
      </trkpt>
      <trkpt lat="43.24487" lon="-0.76522">
        <ele>237.498825</ele>
        <time>2018-10-26T14:28:39Z</time>
      </trkpt>
      <trkpt lat="43.24481" lon="-0.76506">
        <ele>237.414063</ele>
        <time>2018-10-26T14:28:44Z</time>
      </trkpt>
      <trkpt lat="43.24481" lon="-0.76495">
        <ele>236.827515</ele>
        <time>2018-10-26T14:28:48Z</time>
      </trkpt>
      <trkpt lat="43.24484" lon="-0.76482">
        <ele>235.755478</ele>
        <time>2018-10-26T14:28:52Z</time>
      </trkpt>
      <trkpt lat="43.24485" lon="-0.76465">
        <ele>234.787125</ele>
        <time>2018-10-26T14:28:56Z</time>
      </trkpt>
      <trkpt lat="43.24494" lon="-0.76448">
        <ele>232.251465</ele>
        <time>2018-10-26T14:29:00Z</time>
      </trkpt>
      <trkpt lat="43.24501" lon="-0.76407">
        <ele>227.983414</ele>
        <time>2018-10-26T14:29:09Z</time>
      </trkpt>
      <trkpt lat="43.24477" lon="-0.76425">
        <ele>230.358978</ele>
        <time>2018-10-26T14:29:23Z</time>
      </trkpt>
      <trkpt lat="43.24469" lon="-0.76435">
        <ele>232.083893</ele>
        <time>2018-10-26T14:29:28Z</time>
      </trkpt>
      <trkpt lat="43.24458" lon="-0.76443">
        <ele>233.883347</ele>
        <time>2018-10-26T14:29:32Z</time>
      </trkpt>
      <trkpt lat="43.24442" lon="-0.76447">
        <ele>235.373123</ele>
        <time>2018-10-26T14:29:36Z</time>
      </trkpt>
      <trkpt lat="43.24429" lon="-0.76444">
        <ele>235.648743</ele>
        <time>2018-10-26T14:29:40Z</time>
      </trkpt>
      <trkpt lat="43.24414" lon="-0.76437">
        <ele>235.102493</ele>
        <time>2018-10-26T14:29:48Z</time>
      </trkpt>
      <trkpt lat="43.24397" lon="-0.76416">
        <ele>233.089386</ele>
        <time>2018-10-26T14:30:02Z</time>
      </trkpt>
      <trkpt lat="43.24394" lon="-0.76407">
        <ele>231.951996</ele>
        <time>2018-10-26T14:30:06Z</time>
      </trkpt>
      <trkpt lat="43.24381" lon="-0.76384">
        <ele>230.358749</ele>
        <time>2018-10-26T14:30:14Z</time>
      </trkpt>
      <trkpt lat="43.24375" lon="-0.76368">
        <ele>228.504379</ele>
        <time>2018-10-26T14:30:18Z</time>
      </trkpt>
      <trkpt lat="43.24363" lon="-0.76303">
        <ele>220.190308</ele>
        <time>2018-10-26T14:30:27Z</time>
      </trkpt>
      <trkpt lat="43.24342" lon="-0.76281">
        <ele>219.266586</ele>
        <time>2018-10-26T14:30:35Z</time>
      </trkpt>
      <trkpt lat="43.24333" lon="-0.76278">
        <ele>219.751266</ele>
        <time>2018-10-26T14:30:39Z</time>
      </trkpt>
      <trkpt lat="43.24324" lon="-0.76269">
        <ele>219.056808</ele>
        <time>2018-10-26T14:30:43Z</time>
      </trkpt>
      <trkpt lat="43.24314" lon="-0.76261">
        <ele>218.859131</ele>
        <time>2018-10-26T14:30:47Z</time>
      </trkpt>
      <trkpt lat="43.24297" lon="-0.76241">
        <ele>216.909317</ele>
        <time>2018-10-26T14:30:52Z</time>
      </trkpt>
      <trkpt lat="43.2427" lon="-0.76179">
        <ele>209.456818</ele>
        <time>2018-10-26T14:31:01Z</time>
      </trkpt>
      <trkpt lat="43.24258" lon="-0.76164">
        <ele>207.600021</ele>
        <time>2018-10-26T14:31:06Z</time>
      </trkpt>
      <trkpt lat="43.24256" lon="-0.76174">
        <ele>209.201416</ele>
        <time>2018-10-26T14:31:10Z</time>
      </trkpt>
      <trkpt lat="43.24247" lon="-0.76191">
        <ele>211.968781</ele>
        <time>2018-10-26T14:31:15Z</time>
      </trkpt>
      <trkpt lat="43.24238" lon="-0.76197">
        <ele>213.313065</ele>
        <time>2018-10-26T14:31:19Z</time>
      </trkpt>
      <trkpt lat="43.24229" lon="-0.76195">
        <ele>213.301956</ele>
        <time>2018-10-26T14:31:24Z</time>
      </trkpt>
      <trkpt lat="43.24191" lon="-0.762">
        <ele>214.392853</ele>
        <time>2018-10-26T14:31:36Z</time>
      </trkpt>
      <trkpt lat="43.24163" lon="-0.7621">
        <ele>214.502502</ele>
        <time>2018-10-26T14:31:44Z</time>
      </trkpt>
      <trkpt lat="43.24155" lon="-0.76196">
        <ele>211.87149</ele>
        <time>2018-10-26T14:31:48Z</time>
      </trkpt>
      <trkpt lat="43.24126" lon="-0.76132">
        <ele>201.398529</ele>
        <time>2018-10-26T14:32:02Z</time>
      </trkpt>
      <trkpt lat="43.24115" lon="-0.76082">
        <ele>197.109726</ele>
        <time>2018-10-26T14:32:10Z</time>
      </trkpt>
      <trkpt lat="43.24096" lon="-0.76083">
        <ele>197.672195</ele>
        <time>2018-10-26T14:32:15Z</time>
      </trkpt>
      <trkpt lat="43.24084" lon="-0.76093">
        <ele>198.618286</ele>
        <time>2018-10-26T14:32:20Z</time>
      </trkpt>
      <trkpt lat="43.24076" lon="-0.76103">
        <ele>199.367188</ele>
        <time>2018-10-26T14:32:24Z</time>
      </trkpt>
      <trkpt lat="43.24061" lon="-0.76105">
        <ele>199.512375</ele>
        <time>2018-10-26T14:32:28Z</time>
      </trkpt>
      <trkpt lat="43.2404" lon="-0.76102">
        <ele>199.458755</ele>
        <time>2018-10-26T14:32:32Z</time>
      </trkpt>
      <trkpt lat="43.23982" lon="-0.76067">
        <ele>197.249008</ele>
        <time>2018-10-26T14:32:45Z</time>
      </trkpt>
      <trkpt lat="43.23966" lon="-0.76049">
        <ele>196.040421</ele>
        <time>2018-10-26T14:32:50Z</time>
      </trkpt>
      <trkpt lat="43.23965" lon="-0.76037">
        <ele>195.378906</ele>
        <time>2018-10-26T14:32:54Z</time>
      </trkpt>
      <trkpt lat="43.23944" lon="-0.76011">
        <ele>193.704742</ele>
        <time>2018-10-26T14:33:03Z</time>
      </trkpt>
      <trkpt lat="43.23902" lon="-0.7598">
        <ele>191.099289</ele>
        <time>2018-10-26T14:33:17Z</time>
      </trkpt>
      <trkpt lat="43.23887" lon="-0.75961">
        <ele>189.883636</ele>
        <time>2018-10-26T14:33:21Z</time>
      </trkpt>
      <trkpt lat="43.23859" lon="-0.75946">
        <ele>188.697708</ele>
        <time>2018-10-26T14:33:29Z</time>
      </trkpt>
      <trkpt lat="43.23853" lon="-0.75939">
        <ele>188.400116</ele>
        <time>2018-10-26T14:33:36Z</time>
      </trkpt>
      <trkpt lat="43.23836" lon="-0.75939">
        <ele>188.040176</ele>
        <time>2018-10-26T14:33:41Z</time>
      </trkpt>
      <trkpt lat="43.23793" lon="-0.75922">
        <ele>186.601257</ele>
        <time>2018-10-26T14:33:50Z</time>
      </trkpt>
      <trkpt lat="43.23769" lon="-0.75907">
        <ele>185.366669</ele>
        <time>2018-10-26T14:33:54Z</time>
      </trkpt>
      <trkpt lat="43.23714" lon="-0.75849">
        <ele>182.468002</ele>
        <time>2018-10-26T14:34:03Z</time>
      </trkpt>
      <trkpt lat="43.2371" lon="-0.75823">
        <ele>181.495834</ele>
        <time>2018-10-26T14:34:07Z</time>
      </trkpt>
      <trkpt lat="43.2371" lon="-0.75795">
        <ele>180.544998</ele>
        <time>2018-10-26T14:34:12Z</time>
      </trkpt>
      <trkpt lat="43.23698" lon="-0.75777">
        <ele>180.057434</ele>
        <time>2018-10-26T14:34:16Z</time>
      </trkpt>
      <trkpt lat="43.23685" lon="-0.75738">
        <ele>179.206253</ele>
        <time>2018-10-26T14:34:21Z</time>
      </trkpt>
      <trkpt lat="43.23685" lon="-0.75694">
        <ele>177.818756</ele>
        <time>2018-10-26T14:34:26Z</time>
      </trkpt>
      <trkpt lat="43.2368" lon="-0.75644">
        <ele>176.339996</ele>
        <time>2018-10-26T14:34:31Z</time>
      </trkpt>
      <trkpt lat="43.23672" lon="-0.75618">
        <ele>175.69368</ele>
        <time>2018-10-26T14:34:35Z</time>
      </trkpt>
      <trkpt lat="43.23655" lon="-0.75603">
        <ele>175.554901</ele>
        <time>2018-10-26T14:34:39Z</time>
      </trkpt>
      <trkpt lat="43.2363" lon="-0.75572">
        <ele>174.636429</ele>
        <time>2018-10-26T14:34:43Z</time>
      </trkpt>
      <trkpt lat="43.23601" lon="-0.7555">
        <ele>174.900436</ele>
        <time>2018-10-26T14:34:48Z</time>
      </trkpt>
      <trkpt lat="43.23569" lon="-0.75537">
        <ele>176.41745</ele>
        <time>2018-10-26T14:34:53Z</time>
      </trkpt>
      <trkpt lat="43.23543" lon="-0.75485">
        <ele>177.194168</ele>
        <time>2018-10-26T14:35:02Z</time>
      </trkpt>
      <trkpt lat="43.23535" lon="-0.75478">
        <ele>177.24086</ele>
        <time>2018-10-26T14:35:07Z</time>
      </trkpt>
      <trkpt lat="43.23516" lon="-0.75471">
        <ele>177.070877</ele>
        <time>2018-10-26T14:35:16Z</time>
      </trkpt>
      <trkpt lat="43.23507" lon="-0.75482">
        <ele>176.975983</ele>
        <time>2018-10-26T14:35:21Z</time>
      </trkpt>
      <trkpt lat="43.23491" lon="-0.7553">
        <ele>177.607956</ele>
        <time>2018-10-26T14:35:30Z</time>
      </trkpt>
      <trkpt lat="43.23475" lon="-0.75554">
        <ele>178.290771</ele>
        <time>2018-10-26T14:35:35Z</time>
      </trkpt>
      <trkpt lat="43.2346" lon="-0.75567">
        <ele>178.694336</ele>
        <time>2018-10-26T14:35:40Z</time>
      </trkpt>
      <trkpt lat="43.23421" lon="-0.75569">
        <ele>179.154892</ele>
        <time>2018-10-26T14:35:49Z</time>
      </trkpt>
      <trkpt lat="43.23374" lon="-0.75568">
        <ele>179.375626</ele>
        <time>2018-10-26T14:35:59Z</time>
      </trkpt>
      <trkpt lat="43.23358" lon="-0.75574">
        <ele>179.486877</ele>
        <time>2018-10-26T14:36:03Z</time>
      </trkpt>
      <trkpt lat="43.2333" lon="-0.75628">
        <ele>179.749756</ele>
        <time>2018-10-26T14:36:16Z</time>
      </trkpt>
      <trkpt lat="43.23316" lon="-0.75631">
        <ele>179.598175</ele>
        <time>2018-10-26T14:36:21Z</time>
      </trkpt>
      <trkpt lat="43.23308" lon="-0.75617">
        <ele>179.291458</ele>
        <time>2018-10-26T14:36:26Z</time>
      </trkpt>
      <trkpt lat="43.23306" lon="-0.75596">
        <ele>179.022446</ele>
        <time>2018-10-26T14:36:31Z</time>
      </trkpt>
      <trkpt lat="43.23293" lon="-0.75557">
        <ele>179.1604</ele>
        <time>2018-10-26T14:36:40Z</time>
      </trkpt>
      <trkpt lat="43.23285" lon="-0.75508">
        <ele>179</ele>
        <time>2018-10-26T14:36:48Z</time>
      </trkpt>
      <trkpt lat="43.23285" lon="-0.75459">
        <ele>179</ele>
        <time>2018-10-26T14:36:57Z</time>
      </trkpt>
      <trkpt lat="43.23277" lon="-0.75422">
        <ele>179</ele>
        <time>2018-10-26T14:37:06Z</time>
      </trkpt>
      <trkpt lat="43.23271" lon="-0.75405">
        <ele>178.977875</ele>
        <time>2018-10-26T14:37:11Z</time>
      </trkpt>
      <trkpt lat="43.23254" lon="-0.75394">
        <ele>179.714508</ele>
        <time>2018-10-26T14:37:16Z</time>
      </trkpt>
      <trkpt lat="43.23242" lon="-0.75381">
        <ele>180.714127</ele>
        <time>2018-10-26T14:37:20Z</time>
      </trkpt>
      <trkpt lat="43.23237" lon="-0.75368">
        <ele>181.317429</ele>
        <time>2018-10-26T14:37:24Z</time>
      </trkpt>
      <trkpt lat="43.23222" lon="-0.75352">
        <ele>182.983749</ele>
        <time>2018-10-26T14:37:29Z</time>
      </trkpt>
      <trkpt lat="43.23208" lon="-0.75343">
        <ele>185.944534</ele>
        <time>2018-10-26T14:37:34Z</time>
      </trkpt>
      <trkpt lat="43.23202" lon="-0.75331">
        <ele>187.093109</ele>
        <time>2018-10-26T14:37:38Z</time>
      </trkpt>
      <trkpt lat="43.23201" lon="-0.75321">
        <ele>187.203003</ele>
        <time>2018-10-26T14:37:42Z</time>
      </trkpt>
      <trkpt lat="43.23203" lon="-0.75286">
        <ele>186.060745</ele>
        <time>2018-10-26T14:37:50Z</time>
      </trkpt>
      <trkpt lat="43.23193" lon="-0.75266">
        <ele>187.135895</ele>
        <time>2018-10-26T14:37:55Z</time>
      </trkpt>
      <trkpt lat="43.23179" lon="-0.75251">
        <ele>188.756973</ele>
        <time>2018-10-26T14:38:00Z</time>
      </trkpt>
      <trkpt lat="43.23152" lon="-0.75236">
        <ele>193.534576</ele>
        <time>2018-10-26T14:38:08Z</time>
      </trkpt>
      <trkpt lat="43.23141" lon="-0.75233">
        <ele>195.528564</ele>
        <time>2018-10-26T14:38:12Z</time>
      </trkpt>
      <trkpt lat="43.23135" lon="-0.75226">
        <ele>196.479675</ele>
        <time>2018-10-26T14:38:16Z</time>
      </trkpt>
      <trkpt lat="43.23132" lon="-0.75206">
        <ele>195.376251</ele>
        <time>2018-10-26T14:38:20Z</time>
      </trkpt>
      <trkpt lat="43.23135" lon="-0.75188">
        <ele>192.981155</ele>
        <time>2018-10-26T14:38:24Z</time>
      </trkpt>
      <trkpt lat="43.23133" lon="-0.75157">
        <ele>190.573013</ele>
        <time>2018-10-26T14:38:33Z</time>
      </trkpt>
      <trkpt lat="43.23127" lon="-0.75143">
        <ele>190.608536</ele>
        <time>2018-10-26T14:38:37Z</time>
      </trkpt>
      <trkpt lat="43.23117" lon="-0.75132">
        <ele>191.661255</ele>
        <time>2018-10-26T14:38:41Z</time>
      </trkpt>
      <trkpt lat="43.23083" lon="-0.75119">
        <ele>197.924942</ele>
        <time>2018-10-26T14:38:56Z</time>
      </trkpt>
      <trkpt lat="43.23052" lon="-0.75096">
        <ele>202.419586</ele>
        <time>2018-10-26T14:39:04Z</time>
      </trkpt>
      <trkpt lat="43.23031" lon="-0.75092">
        <ele>206.709793</ele>
        <time>2018-10-26T14:39:12Z</time>
      </trkpt>
      <trkpt lat="43.23023" lon="-0.75094">
        <ele>208.645081</ele>
        <time>2018-10-26T14:39:16Z</time>
      </trkpt>
      <trkpt lat="43.23012" lon="-0.75075">
        <ele>208.705124</ele>
        <time>2018-10-26T14:39:24Z</time>
      </trkpt>
      <trkpt lat="43.23001" lon="-0.75063">
        <ele>209.315979</ele>
        <time>2018-10-26T14:39:28Z</time>
      </trkpt>
      <trkpt lat="43.22971" lon="-0.75049">
        <ele>212.632797</ele>
        <time>2018-10-26T14:39:37Z</time>
      </trkpt>
      <trkpt lat="43.2296" lon="-0.75049">
        <ele>214.531036</ele>
        <time>2018-10-26T14:39:41Z</time>
      </trkpt>
      <trkpt lat="43.22932" lon="-0.75035">
        <ele>215.995728</ele>
        <time>2018-10-26T14:39:49Z</time>
      </trkpt>
      <trkpt lat="43.22913" lon="-0.7501">
        <ele>215.399292</ele>
        <time>2018-10-26T14:39:57Z</time>
      </trkpt>
      <trkpt lat="43.22902" lon="-0.74987">
        <ele>214.13147</ele>
        <time>2018-10-26T14:40:02Z</time>
      </trkpt>
      <trkpt lat="43.22889" lon="-0.74981">
        <ele>214.865326</ele>
        <time>2018-10-26T14:40:06Z</time>
      </trkpt>
      <trkpt lat="43.22863" lon="-0.74958">
        <ele>214.739594</ele>
        <time>2018-10-26T14:40:16Z</time>
      </trkpt>
      <trkpt lat="43.22849" lon="-0.74957">
        <ele>214.97435</ele>
        <time>2018-10-26T14:40:20Z</time>
      </trkpt>
      <trkpt lat="43.22826" lon="-0.74942">
        <ele>214.283234</ele>
        <time>2018-10-26T14:40:28Z</time>
      </trkpt>
      <trkpt lat="43.22807" lon="-0.74916">
        <ele>211.72998</ele>
        <time>2018-10-26T14:40:36Z</time>
      </trkpt>
      <trkpt lat="43.22799" lon="-0.74892">
        <ele>209.630005</ele>
        <time>2018-10-26T14:40:41Z</time>
      </trkpt>
      <trkpt lat="43.22784" lon="-0.74881">
        <ele>208.137604</ele>
        <time>2018-10-26T14:40:46Z</time>
      </trkpt>
      <trkpt lat="43.22762" lon="-0.74873">
        <ele>206.287857</ele>
        <time>2018-10-26T14:40:51Z</time>
      </trkpt>
      <trkpt lat="43.22749" lon="-0.74862">
        <ele>204.600418</ele>
        <time>2018-10-26T14:40:55Z</time>
      </trkpt>
      <trkpt lat="43.22724" lon="-0.74821">
        <ele>200.2444</ele>
        <time>2018-10-26T14:41:00Z</time>
      </trkpt>
      <trkpt lat="43.22679" lon="-0.74756">
        <ele>194.741837</ele>
        <time>2018-10-26T14:41:09Z</time>
      </trkpt>
      <trkpt lat="43.22672" lon="-0.74704">
        <ele>191.794998</ele>
        <time>2018-10-26T14:41:14Z</time>
      </trkpt>
      <trkpt lat="43.22676" lon="-0.74676">
        <ele>189.960007</ele>
        <time>2018-10-26T14:41:18Z</time>
      </trkpt>
      <trkpt lat="43.22692" lon="-0.74659">
        <ele>188.792496</ele>
        <time>2018-10-26T14:41:22Z</time>
      </trkpt>
      <trkpt lat="43.22686" lon="-0.74652">
        <ele>188.322495</ele>
        <time>2018-10-26T14:41:28Z</time>
      </trkpt>
      <trkpt lat="43.22674" lon="-0.74646">
        <ele>187.992493</ele>
        <time>2018-10-26T14:41:32Z</time>
      </trkpt>
      <trkpt lat="43.22608" lon="-0.74628">
        <ele>188.504379</ele>
        <time>2018-10-26T14:41:44Z</time>
      </trkpt>
      <trkpt lat="43.22584" lon="-0.74604">
        <ele>188.532501</ele>
        <time>2018-10-26T14:41:48Z</time>
      </trkpt>
      <trkpt lat="43.22558" lon="-0.74586">
        <ele>188.902496</ele>
        <time>2018-10-26T14:41:52Z</time>
      </trkpt>
      <trkpt lat="43.2253" lon="-0.74579">
        <ele>189.884384</ele>
        <time>2018-10-26T14:41:56Z</time>
      </trkpt>
      <trkpt lat="43.2251" lon="-0.74586">
        <ele>191.421402</ele>
        <time>2018-10-26T14:42:01Z</time>
      </trkpt>
      <trkpt lat="43.22488" lon="-0.74587">
        <ele>192.910217</ele>
        <time>2018-10-26T14:42:06Z</time>
      </trkpt>
      <trkpt lat="43.22471" lon="-0.7458">
        <ele>193.623871</ele>
        <time>2018-10-26T14:42:10Z</time>
      </trkpt>
      <trkpt lat="43.22451" lon="-0.74579">
        <ele>194.537689</ele>
        <time>2018-10-26T14:42:14Z</time>
      </trkpt>
      <trkpt lat="43.22414" lon="-0.74592">
        <ele>196.057495</ele>
        <time>2018-10-26T14:42:22Z</time>
      </trkpt>
      <trkpt lat="43.22399" lon="-0.74587">
        <ele>195.817505</ele>
        <time>2018-10-26T14:42:26Z</time>
      </trkpt>
      <trkpt lat="43.2238" lon="-0.74574">
        <ele>195.220459</ele>
        <time>2018-10-26T14:42:31Z</time>
      </trkpt>
      <trkpt lat="43.22361" lon="-0.74557">
        <ele>194.814377</ele>
        <time>2018-10-26T14:42:36Z</time>
      </trkpt>
      <trkpt lat="43.22324" lon="-0.7451">
        <ele>194.568344</ele>
        <time>2018-10-26T14:42:44Z</time>
      </trkpt>
      <trkpt lat="43.22303" lon="-0.7448">
        <ele>195.397171</ele>
        <time>2018-10-26T14:42:48Z</time>
      </trkpt>
      <trkpt lat="43.22284" lon="-0.74462">
        <ele>196.692657</ele>
        <time>2018-10-26T14:42:52Z</time>
      </trkpt>
      <trkpt lat="43.22277" lon="-0.7444">
        <ele>197.212204</ele>
        <time>2018-10-26T14:42:56Z</time>
      </trkpt>
      <trkpt lat="43.22265" lon="-0.74418">
        <ele>197.529999</ele>
        <time>2018-10-26T14:43:00Z</time>
      </trkpt>
      <trkpt lat="43.2225" lon="-0.74402">
        <ele>198.042175</ele>
        <time>2018-10-26T14:43:04Z</time>
      </trkpt>
      <trkpt lat="43.22235" lon="-0.74382">
        <ele>198.343597</ele>
        <time>2018-10-26T14:43:08Z</time>
      </trkpt>
      <trkpt lat="43.22225" lon="-0.74354">
        <ele>198.128265</ele>
        <time>2018-10-26T14:43:13Z</time>
      </trkpt>
      <trkpt lat="43.22223" lon="-0.74305">
        <ele>197.135498</ele>
        <time>2018-10-26T14:43:21Z</time>
      </trkpt>
      <trkpt lat="43.22213" lon="-0.74296">
        <ele>197.140961</ele>
        <time>2018-10-26T14:43:26Z</time>
      </trkpt>
      <trkpt lat="43.22205" lon="-0.74296">
        <ele>197.342392</ele>
        <time>2018-10-26T14:43:31Z</time>
      </trkpt>
      <trkpt lat="43.222" lon="-0.74307">
        <ele>197.666061</ele>
        <time>2018-10-26T14:43:36Z</time>
      </trkpt>
      <trkpt lat="43.22196" lon="-0.74332">
        <ele>198.865616</ele>
        <time>2018-10-26T14:43:45Z</time>
      </trkpt>
      <trkpt lat="43.22197" lon="-0.74341">
        <ele>199.190506</ele>
        <time>2018-10-26T14:43:49Z</time>
      </trkpt>
      <trkpt lat="43.22195" lon="-0.74361">
        <ele>200.248825</ele>
        <time>2018-10-26T14:43:54Z</time>
      </trkpt>
      <trkpt lat="43.22184" lon="-0.74399">
        <ele>204.7565</ele>
        <time>2018-10-26T14:44:06Z</time>
      </trkpt>
      <trkpt lat="43.22178" lon="-0.74408">
        <ele>206.73996</ele>
        <time>2018-10-26T14:44:10Z</time>
      </trkpt>
      <trkpt lat="43.22169" lon="-0.74416">
        <ele>209.332504</ele>
        <time>2018-10-26T14:44:15Z</time>
      </trkpt>
      <trkpt lat="43.22163" lon="-0.74412">
        <ele>209.920624</ele>
        <time>2018-10-26T14:44:20Z</time>
      </trkpt>
      <trkpt lat="43.22146" lon="-0.74412">
        <ele>212.778748</ele>
        <time>2018-10-26T14:44:28Z</time>
      </trkpt>
      <trkpt lat="43.22135" lon="-0.74417">
        <ele>215.193756</ele>
        <time>2018-10-26T14:44:33Z</time>
      </trkpt>
      <trkpt lat="43.22127" lon="-0.74418">
        <ele>216.595627</ele>
        <time>2018-10-26T14:44:38Z</time>
      </trkpt>
      <trkpt lat="43.22107" lon="-0.74438">
        <ele>221.05925</ele>
        <time>2018-10-26T14:44:50Z</time>
      </trkpt>
      <trkpt lat="43.22095" lon="-0.74437">
        <ele>221.979126</ele>
        <time>2018-10-26T14:44:54Z</time>
      </trkpt>
      <trkpt lat="43.2207" lon="-0.74427">
        <ele>223.587006</ele>
        <time>2018-10-26T14:45:02Z</time>
      </trkpt>
      <trkpt lat="43.22037" lon="-0.744">
        <ele>224.593124</ele>
        <time>2018-10-26T14:45:15Z</time>
      </trkpt>
      <trkpt lat="43.2203" lon="-0.74391">
        <ele>224.762253</ele>
        <time>2018-10-26T14:45:19Z</time>
      </trkpt>
      <trkpt lat="43.22006" lon="-0.74379">
        <ele>226.827133</ele>
        <time>2018-10-26T14:45:28Z</time>
      </trkpt>
      <trkpt lat="43.21976" lon="-0.74355">
        <ele>229.31633</ele>
        <time>2018-10-26T14:45:41Z</time>
      </trkpt>
      <trkpt lat="43.21964" lon="-0.7435">
        <ele>230.598831</ele>
        <time>2018-10-26T14:45:45Z</time>
      </trkpt>
      <trkpt lat="43.21953" lon="-0.7435">
        <ele>232.310165</ele>
        <time>2018-10-26T14:45:50Z</time>
      </trkpt>
      <trkpt lat="43.21931" lon="-0.74354">
        <ele>236.05571</ele>
        <time>2018-10-26T14:45:59Z</time>
      </trkpt>
      <trkpt lat="43.21922" lon="-0.74362">
        <ele>237.808594</ele>
        <time>2018-10-26T14:46:04Z</time>
      </trkpt>
      <trkpt lat="43.21912" lon="-0.74365">
        <ele>239.292801</ele>
        <time>2018-10-26T14:46:08Z</time>
      </trkpt>
      <trkpt lat="43.21904" lon="-0.7437">
        <ele>240.252197</ele>
        <time>2018-10-26T14:46:12Z</time>
      </trkpt>
      <trkpt lat="43.21878" lon="-0.74376">
        <ele>241.149323</ele>
        <time>2018-10-26T14:46:24Z</time>
      </trkpt>
      <trkpt lat="43.21863" lon="-0.74372">
        <ele>241.80043</ele>
        <time>2018-10-26T14:46:28Z</time>
      </trkpt>
      <trkpt lat="43.21851" lon="-0.74351">
        <ele>242.43454</ele>
        <time>2018-10-26T14:46:36Z</time>
      </trkpt>
      <trkpt lat="43.21851" lon="-0.74289">
        <ele>244.458405</ele>
        <time>2018-10-26T14:46:50Z</time>
      </trkpt>
      <trkpt lat="43.21855" lon="-0.74271">
        <ele>244.479202</ele>
        <time>2018-10-26T14:46:54Z</time>
      </trkpt>
      <trkpt lat="43.21855" lon="-0.74248">
        <ele>244.246429</ele>
        <time>2018-10-26T14:46:58Z</time>
      </trkpt>
      <trkpt lat="43.21844" lon="-0.74234">
        <ele>244.352936</ele>
        <time>2018-10-26T14:47:02Z</time>
      </trkpt>
      <trkpt lat="43.21824" lon="-0.74216">
        <ele>245.125381</ele>
        <time>2018-10-26T14:47:10Z</time>
      </trkpt>
      <trkpt lat="43.21818" lon="-0.742">
        <ele>245.887756</ele>
        <time>2018-10-26T14:47:14Z</time>
      </trkpt>
      <trkpt lat="43.21796" lon="-0.74097">
        <ele>246.882782</ele>
        <time>2018-10-26T14:47:38Z</time>
      </trkpt>
      <trkpt lat="43.2179" lon="-0.74082">
        <ele>247.889694</ele>
        <time>2018-10-26T14:47:42Z</time>
      </trkpt>
      <trkpt lat="43.21789" lon="-0.74068">
        <ele>248.705963</ele>
        <time>2018-10-26T14:47:46Z</time>
      </trkpt>
      <trkpt lat="43.21778" lon="-0.7402">
        <ele>254.594284</ele>
        <time>2018-10-26T14:47:58Z</time>
      </trkpt>
      <trkpt lat="43.21758" lon="-0.73957">
        <ele>263.583069</ele>
        <time>2018-10-26T14:48:21Z</time>
      </trkpt>
      <trkpt lat="43.21757" lon="-0.73946">
        <ele>264.33609</ele>
        <time>2018-10-26T14:48:25Z</time>
      </trkpt>
      <trkpt lat="43.2176" lon="-0.73933">
        <ele>264.271454</ele>
        <time>2018-10-26T14:48:30Z</time>
      </trkpt>
      <trkpt lat="43.21759" lon="-0.73922">
        <ele>265.332184</ele>
        <time>2018-10-26T14:48:34Z</time>
      </trkpt>
      <trkpt lat="43.21749" lon="-0.73902">
        <ele>268.973816</ele>
        <time>2018-10-26T14:48:45Z</time>
      </trkpt>
      <trkpt lat="43.21739" lon="-0.739">
        <ele>272.746307</ele>
        <time>2018-10-26T14:48:50Z</time>
      </trkpt>
      <trkpt lat="43.21725" lon="-0.73903">
        <ele>276.302338</ele>
        <time>2018-10-26T14:48:58Z</time>
      </trkpt>
      <trkpt lat="43.21694" lon="-0.739">
        <ele>282.959351</ele>
        <time>2018-10-26T14:49:12Z</time>
      </trkpt>
      <trkpt lat="43.2165" lon="-0.73915">
        <ele>287.220703</ele>
        <time>2018-10-26T14:49:30Z</time>
      </trkpt>
      <trkpt lat="43.21637" lon="-0.73925">
        <ele>286.528717</ele>
        <time>2018-10-26T14:49:35Z</time>
      </trkpt>
      <trkpt lat="43.21605" lon="-0.73937">
        <ele>285.999573</ele>
        <time>2018-10-26T14:49:40Z</time>
      </trkpt>
      <trkpt lat="43.21587" lon="-0.7394">
        <ele>285.489746</ele>
        <time>2018-10-26T14:49:45Z</time>
      </trkpt>
      <trkpt lat="43.21505" lon="-0.74019">
        <ele>273.157013</ele>
        <time>2018-10-26T14:50:02Z</time>
      </trkpt>
      <trkpt lat="43.21467" lon="-0.74041">
        <ele>268.926331</ele>
        <time>2018-10-26T14:50:10Z</time>
      </trkpt>
      <trkpt lat="43.21438" lon="-0.74045">
        <ele>267.449585</ele>
        <time>2018-10-26T14:50:18Z</time>
      </trkpt>
      <trkpt lat="43.21417" lon="-0.74041">
        <ele>266.76886</ele>
        <time>2018-10-26T14:50:28Z</time>
      </trkpt>
      <trkpt lat="43.21414" lon="-0.74031">
        <ele>266.58783</ele>
        <time>2018-10-26T14:52:35Z</time>
      </trkpt>
      <trkpt lat="43.21416" lon="-0.7402">
        <ele>266.638214</ele>
        <time>2018-10-26T14:52:47Z</time>
      </trkpt>
      <trkpt lat="43.21444" lon="-0.73956">
        <ele>269.141541</ele>
        <time>2018-10-26T14:53:05Z</time>
      </trkpt>
      <trkpt lat="43.21453" lon="-0.73944">
        <ele>271.447601</ele>
        <time>2018-10-26T14:53:09Z</time>
      </trkpt>
      <trkpt lat="43.21473" lon="-0.73886">
        <ele>278.322693</ele>
        <time>2018-10-26T14:53:23Z</time>
      </trkpt>
      <trkpt lat="43.2148" lon="-0.73852">
        <ele>281.018127</ele>
        <time>2018-10-26T14:53:31Z</time>
      </trkpt>
      <trkpt lat="43.21485" lon="-0.7384">
        <ele>281.480713</ele>
        <time>2018-10-26T14:53:35Z</time>
      </trkpt>
      <trkpt lat="43.21493" lon="-0.73829">
        <ele>281.169006</ele>
        <time>2018-10-26T14:53:39Z</time>
      </trkpt>
      <trkpt lat="43.21505" lon="-0.7382">
        <ele>281.700012</ele>
        <time>2018-10-26T14:53:44Z</time>
      </trkpt>
      <trkpt lat="43.21523" lon="-0.73812">
        <ele>283.052612</ele>
        <time>2018-10-26T14:53:49Z</time>
      </trkpt>
      <trkpt lat="43.21557" lon="-0.73791">
        <ele>284.996338</ele>
        <time>2018-10-26T14:53:58Z</time>
      </trkpt>
      <trkpt lat="43.21573" lon="-0.73773">
        <ele>285.556366</ele>
        <time>2018-10-26T14:54:02Z</time>
      </trkpt>
      <trkpt lat="43.21597" lon="-0.73719">
        <ele>285.84726</ele>
        <time>2018-10-26T14:54:11Z</time>
      </trkpt>
      <trkpt lat="43.21611" lon="-0.73654">
        <ele>285.476532</ele>
        <time>2018-10-26T14:54:21Z</time>
      </trkpt>
      <trkpt lat="43.21644" lon="-0.73612">
        <ele>285.444489</ele>
        <time>2018-10-26T14:54:30Z</time>
      </trkpt>
      <trkpt lat="43.2166" lon="-0.73557">
        <ele>284.23584</ele>
        <time>2018-10-26T14:54:38Z</time>
      </trkpt>
      <trkpt lat="43.21662" lon="-0.73493">
        <ele>282.90329</ele>
        <time>2018-10-26T14:54:46Z</time>
      </trkpt>
      <trkpt lat="43.21671" lon="-0.73421">
        <ele>282.421631</ele>
        <time>2018-10-26T14:54:56Z</time>
      </trkpt>
      <trkpt lat="43.21672" lon="-0.73299">
        <ele>281.320099</ele>
        <time>2018-10-26T14:55:08Z</time>
      </trkpt>
      <trkpt lat="43.21677" lon="-0.73257">
        <ele>280.526337</ele>
        <time>2018-10-26T14:55:12Z</time>
      </trkpt>
      <trkpt lat="43.21685" lon="-0.73221">
        <ele>280.886322</ele>
        <time>2018-10-26T14:55:16Z</time>
      </trkpt>
      <trkpt lat="43.21695" lon="-0.73193">
        <ele>282.191589</ele>
        <time>2018-10-26T14:55:20Z</time>
      </trkpt>
      <trkpt lat="43.21708" lon="-0.73169">
        <ele>283.875214</ele>
        <time>2018-10-26T14:55:24Z</time>
      </trkpt>
      <trkpt lat="43.21727" lon="-0.73148">
        <ele>284.88562</ele>
        <time>2018-10-26T14:55:29Z</time>
      </trkpt>
      <trkpt lat="43.21758" lon="-0.73123">
        <ele>285.981201</ele>
        <time>2018-10-26T14:55:38Z</time>
      </trkpt>
      <trkpt lat="43.21771" lon="-0.73122">
        <ele>285.999573</ele>
        <time>2018-10-26T14:55:42Z</time>
      </trkpt>
      <trkpt lat="43.21792" lon="-0.73117">
        <ele>285.975983</ele>
        <time>2018-10-26T14:55:47Z</time>
      </trkpt>
      <trkpt lat="43.21812" lon="-0.73106">
        <ele>286.061615</ele>
        <time>2018-10-26T14:55:51Z</time>
      </trkpt>
      <trkpt lat="43.2187" lon="-0.73067">
        <ele>286.991241</ele>
        <time>2018-10-26T14:56:08Z</time>
      </trkpt>
      <trkpt lat="43.21888" lon="-0.73044">
        <ele>286.257507</ele>
        <time>2018-10-26T14:56:16Z</time>
      </trkpt>
      <trkpt lat="43.21897" lon="-0.73027">
        <ele>285.659454</ele>
        <time>2018-10-26T14:56:21Z</time>
      </trkpt>
      <trkpt lat="43.21899" lon="-0.72994">
        <ele>284.657471</ele>
        <time>2018-10-26T14:56:29Z</time>
      </trkpt>
      <trkpt lat="43.21895" lon="-0.72974">
        <ele>284.491089</ele>
        <time>2018-10-26T14:56:34Z</time>
      </trkpt>
      <trkpt lat="43.21887" lon="-0.7297">
        <ele>284.550018</ele>
        <time>2018-10-26T14:56:38Z</time>
      </trkpt>
      <trkpt lat="43.21868" lon="-0.72974">
        <ele>284.817719</ele>
        <time>2018-10-26T14:57:00Z</time>
      </trkpt>
      <trkpt lat="43.21851" lon="-0.72992">
        <ele>284.999023</ele>
        <time>2018-10-26T14:57:10Z</time>
      </trkpt>
      <trkpt lat="43.21815" lon="-0.73038">
        <ele>285.426239</ele>
        <time>2018-10-26T14:57:19Z</time>
      </trkpt>
      <trkpt lat="43.21801" lon="-0.73045">
        <ele>285.339996</ele>
        <time>2018-10-26T14:57:23Z</time>
      </trkpt>
      <trkpt lat="43.21784" lon="-0.73044">
        <ele>284.957489</ele>
        <time>2018-10-26T14:57:27Z</time>
      </trkpt>
      <trkpt lat="43.21724" lon="-0.73049">
        <ele>283.91748</ele>
        <time>2018-10-26T14:57:36Z</time>
      </trkpt>
      <trkpt lat="43.21697" lon="-0.73047">
        <ele>282.263702</ele>
        <time>2018-10-26T14:57:41Z</time>
      </trkpt>
      <trkpt lat="43.21673" lon="-0.73035">
        <ele>280.503601</ele>
        <time>2018-10-26T14:57:45Z</time>
      </trkpt>
      <trkpt lat="43.21652" lon="-0.72981">
        <ele>280.424255</ele>
        <time>2018-10-26T14:57:54Z</time>
      </trkpt>
      <trkpt lat="43.21627" lon="-0.72959">
        <ele>280.507111</ele>
        <time>2018-10-26T14:57:59Z</time>
      </trkpt>
      <trkpt lat="43.21606" lon="-0.72934">
        <ele>280.766418</ele>
        <time>2018-10-26T14:58:04Z</time>
      </trkpt>
      <trkpt lat="43.21586" lon="-0.72921">
        <ele>280.370056</ele>
        <time>2018-10-26T14:58:08Z</time>
      </trkpt>
      <trkpt lat="43.21568" lon="-0.72902">
        <ele>278.583405</ele>
        <time>2018-10-26T14:58:13Z</time>
      </trkpt>
      <trkpt lat="43.21543" lon="-0.72867">
        <ele>277.90271</ele>
        <time>2018-10-26T14:58:22Z</time>
      </trkpt>
      <trkpt lat="43.21537" lon="-0.72854">
        <ele>276.91449</ele>
        <time>2018-10-26T14:58:26Z</time>
      </trkpt>
      <trkpt lat="43.21532" lon="-0.72835">
        <ele>275.256256</ele>
        <time>2018-10-26T14:58:30Z</time>
      </trkpt>
      <trkpt lat="43.21516" lon="-0.72824">
        <ele>275.685608</ele>
        <time>2018-10-26T14:58:34Z</time>
      </trkpt>
      <trkpt lat="43.21498" lon="-0.72798">
        <ele>276.548279</ele>
        <time>2018-10-26T14:58:38Z</time>
      </trkpt>
      <trkpt lat="43.21475" lon="-0.72773">
        <ele>273.936462</ele>
        <time>2018-10-26T14:58:43Z</time>
      </trkpt>
      <trkpt lat="43.21444" lon="-0.72743">
        <ele>274.118927</ele>
        <time>2018-10-26T14:58:52Z</time>
      </trkpt>
      <trkpt lat="43.21432" lon="-0.72737">
        <ele>274.001801</ele>
        <time>2018-10-26T14:58:56Z</time>
      </trkpt>
      <trkpt lat="43.21426" lon="-0.72727">
        <ele>273.25412</ele>
        <time>2018-10-26T14:59:00Z</time>
      </trkpt>
      <trkpt lat="43.21426" lon="-0.72708">
        <ele>271.520508</ele>
        <time>2018-10-26T14:59:05Z</time>
      </trkpt>
      <trkpt lat="43.21388" lon="-0.72644">
        <ele>269.851685</ele>
        <time>2018-10-26T14:59:19Z</time>
      </trkpt>
      <trkpt lat="43.21342" lon="-0.72552">
        <ele>266.519989</ele>
        <time>2018-10-26T14:59:35Z</time>
      </trkpt>
      <trkpt lat="43.2133" lon="-0.72524">
        <ele>265.080505</ele>
        <time>2018-10-26T14:59:39Z</time>
      </trkpt>
      <trkpt lat="43.21312" lon="-0.72502">
        <ele>264.957397</ele>
        <time>2018-10-26T14:59:43Z</time>
      </trkpt>
      <trkpt lat="43.21291" lon="-0.72491">
        <ele>266.953552</ele>
        <time>2018-10-26T14:59:47Z</time>
      </trkpt>
      <trkpt lat="43.21266" lon="-0.72484">
        <ele>268.797943</ele>
        <time>2018-10-26T14:59:52Z</time>
      </trkpt>
      <trkpt lat="43.21249" lon="-0.72475">
        <ele>268.938385</ele>
        <time>2018-10-26T14:59:56Z</time>
      </trkpt>
      <trkpt lat="43.21234" lon="-0.72471">
        <ele>269.389404</ele>
        <time>2018-10-26T15:00:00Z</time>
      </trkpt>
      <trkpt lat="43.21226" lon="-0.72461">
        <ele>268.77243</ele>
        <time>2018-10-26T15:00:05Z</time>
      </trkpt>
      <trkpt lat="43.21218" lon="-0.72435">
        <ele>268.172363</ele>
        <time>2018-10-26T15:00:14Z</time>
      </trkpt>
      <trkpt lat="43.21215" lon="-0.72418">
        <ele>268.067017</ele>
        <time>2018-10-26T15:00:18Z</time>
      </trkpt>
      <trkpt lat="43.21216" lon="-0.72401">
        <ele>267.030212</ele>
        <time>2018-10-26T15:00:22Z</time>
      </trkpt>
      <trkpt lat="43.21213" lon="-0.72384">
        <ele>266.407837</ele>
        <time>2018-10-26T15:00:26Z</time>
      </trkpt>
      <trkpt lat="43.21191" lon="-0.7236">
        <ele>268.27832</ele>
        <time>2018-10-26T15:00:40Z</time>
      </trkpt>
      <trkpt lat="43.21164" lon="-0.72353">
        <ele>268.718658</ele>
        <time>2018-10-26T15:00:54Z</time>
      </trkpt>
      <trkpt lat="43.21155" lon="-0.72357">
        <ele>268.959381</ele>
        <time>2018-10-26T15:00:58Z</time>
      </trkpt>
      <trkpt lat="43.21129" lon="-0.72344">
        <ele>268.068512</ele>
        <time>2018-10-26T15:01:06Z</time>
      </trkpt>
      <trkpt lat="43.21117" lon="-0.72345">
        <ele>267.968445</ele>
        <time>2018-10-26T15:01:10Z</time>
      </trkpt>
      <trkpt lat="43.21109" lon="-0.72343">
        <ele>267.637207</ele>
        <time>2018-10-26T15:01:17Z</time>
      </trkpt>
      <trkpt lat="43.21109" lon="-0.7232">
        <ele>266.127808</ele>
        <time>2018-10-26T15:01:27Z</time>
      </trkpt>
      <trkpt lat="43.21098" lon="-0.72292">
        <ele>264.265869</ele>
        <time>2018-10-26T15:01:36Z</time>
      </trkpt>
      <trkpt lat="43.21065" lon="-0.7225">
        <ele>262.733398</ele>
        <time>2018-10-26T15:01:49Z</time>
      </trkpt>
      <trkpt lat="43.2105" lon="-0.72244">
        <ele>263.138092</ele>
        <time>2018-10-26T15:01:54Z</time>
      </trkpt>
      <trkpt lat="43.21022" lon="-0.7224">
        <ele>264.179413</ele>
        <time>2018-10-26T15:02:09Z</time>
      </trkpt>
      <trkpt lat="43.21015" lon="-0.72246">
        <ele>264.385468</ele>
        <time>2018-10-26T15:02:18Z</time>
      </trkpt>
      <trkpt lat="43.21005" lon="-0.72265">
        <ele>264.396423</ele>
        <time>2018-10-26T15:02:28Z</time>
      </trkpt>
      <trkpt lat="43.20993" lon="-0.72262">
        <ele>264.103973</ele>
        <time>2018-10-26T15:02:33Z</time>
      </trkpt>
      <trkpt lat="43.20982" lon="-0.72253">
        <ele>264.050995</ele>
        <time>2018-10-26T15:02:37Z</time>
      </trkpt>
      <trkpt lat="43.20948" lon="-0.72209">
        <ele>264.078278</ele>
        <time>2018-10-26T15:02:47Z</time>
      </trkpt>
      <trkpt lat="43.20933" lon="-0.72197">
        <ele>263.680267</ele>
        <time>2018-10-26T15:02:51Z</time>
      </trkpt>
      <trkpt lat="43.20926" lon="-0.72178">
        <ele>263.256012</ele>
        <time>2018-10-26T15:02:55Z</time>
      </trkpt>
      <trkpt lat="43.20902" lon="-0.72163">
        <ele>262.866272</ele>
        <time>2018-10-26T15:03:03Z</time>
      </trkpt>
      <trkpt lat="43.20884" lon="-0.7216">
        <ele>262.545471</ele>
        <time>2018-10-26T15:03:08Z</time>
      </trkpt>
      <trkpt lat="43.20853" lon="-0.7214">
        <ele>256.174286</ele>
        <time>2018-10-26T15:03:17Z</time>
      </trkpt>
      <trkpt lat="43.20822" lon="-0.72133">
        <ele>251.422668</ele>
        <time>2018-10-26T15:03:22Z</time>
      </trkpt>
      <trkpt lat="43.20788" lon="-0.72134">
        <ele>247.152069</ele>
        <time>2018-10-26T15:03:31Z</time>
      </trkpt>
      <trkpt lat="43.20778" lon="-0.72139">
        <ele>246.224854</ele>
        <time>2018-10-26T15:03:35Z</time>
      </trkpt>
      <trkpt lat="43.20767" lon="-0.72152">
        <ele>244.718124</ele>
        <time>2018-10-26T15:03:40Z</time>
      </trkpt>
      <trkpt lat="43.20763" lon="-0.72166">
        <ele>243.136246</ele>
        <time>2018-10-26T15:03:44Z</time>
      </trkpt>
      <trkpt lat="43.20752" lon="-0.72177">
        <ele>240.6875</ele>
        <time>2018-10-26T15:03:48Z</time>
      </trkpt>
      <trkpt lat="43.20729" lon="-0.72181">
        <ele>237.545685</ele>
        <time>2018-10-26T15:03:52Z</time>
      </trkpt>
      <trkpt lat="43.20707" lon="-0.72195">
        <ele>233.913666</ele>
        <time>2018-10-26T15:03:57Z</time>
      </trkpt>
      <trkpt lat="43.20687" lon="-0.72212">
        <ele>230.220139</ele>
        <time>2018-10-26T15:04:01Z</time>
      </trkpt>
      <trkpt lat="43.20652" lon="-0.72224">
        <ele>225.471619</ele>
        <time>2018-10-26T15:04:06Z</time>
      </trkpt>
      <trkpt lat="43.20622" lon="-0.72251">
        <ele>221.869751</ele>
        <time>2018-10-26T15:04:11Z</time>
      </trkpt>
      <trkpt lat="43.20573" lon="-0.72282">
        <ele>214.996445</ele>
        <time>2018-10-26T15:04:19Z</time>
      </trkpt>
      <trkpt lat="43.20541" lon="-0.72311">
        <ele>210.357681</ele>
        <time>2018-10-26T15:04:24Z</time>
      </trkpt>
      <trkpt lat="43.20512" lon="-0.72329">
        <ele>206.816254</ele>
        <time>2018-10-26T15:04:28Z</time>
      </trkpt>
      <trkpt lat="43.20478" lon="-0.72337">
        <ele>203.473755</ele>
        <time>2018-10-26T15:04:33Z</time>
      </trkpt>
      <trkpt lat="43.2043" lon="-0.72309">
        <ele>198.77298</ele>
        <time>2018-10-26T15:04:42Z</time>
      </trkpt>
      <trkpt lat="43.20417" lon="-0.72312">
        <ele>198.029541</ele>
        <time>2018-10-26T15:04:47Z</time>
      </trkpt>
      <trkpt lat="43.20419" lon="-0.72327">
        <ele>197.9953</ele>
        <time>2018-10-26T15:04:51Z</time>
      </trkpt>
      <trkpt lat="43.20429" lon="-0.72364">
        <ele>198.099457</ele>
        <time>2018-10-26T15:05:00Z</time>
      </trkpt>
      <trkpt lat="43.20452" lon="-0.72406">
        <ele>199.288498</ele>
        <time>2018-10-26T15:05:09Z</time>
      </trkpt>
      <trkpt lat="43.20479" lon="-0.72447">
        <ele>200.125854</ele>
        <time>2018-10-26T15:05:17Z</time>
      </trkpt>
      <trkpt lat="43.20516" lon="-0.72488">
        <ele>199.926483</ele>
        <time>2018-10-26T15:05:26Z</time>
      </trkpt>
      <trkpt lat="43.20529" lon="-0.72513">
        <ele>200.570724</ele>
        <time>2018-10-26T15:05:30Z</time>
      </trkpt>
      <trkpt lat="43.20538" lon="-0.72545">
        <ele>200.679718</ele>
        <time>2018-10-26T15:05:34Z</time>
      </trkpt>
      <trkpt lat="43.2054" lon="-0.72584">
        <ele>199.923004</ele>
        <time>2018-10-26T15:05:39Z</time>
      </trkpt>
      <trkpt lat="43.20534" lon="-0.72638">
        <ele>200.123886</ele>
        <time>2018-10-26T15:05:47Z</time>
      </trkpt>
      <trkpt lat="43.20543" lon="-0.7266">
        <ele>200.736267</ele>
        <time>2018-10-26T15:05:52Z</time>
      </trkpt>
      <trkpt lat="43.20545" lon="-0.72732">
        <ele>204.652069</ele>
        <time>2018-10-26T15:06:10Z</time>
      </trkpt>
      <trkpt lat="43.20541" lon="-0.72766">
        <ele>207.315613</ele>
        <time>2018-10-26T15:06:19Z</time>
      </trkpt>
      <trkpt lat="43.20541" lon="-0.728">
        <ele>209.538345</ele>
        <time>2018-10-26T15:06:29Z</time>
      </trkpt>
      <trkpt lat="43.20537" lon="-0.7283">
        <ele>212.095993</ele>
        <time>2018-10-26T15:06:37Z</time>
      </trkpt>
      <trkpt lat="43.20535" lon="-0.72871">
        <ele>215.036728</ele>
        <time>2018-10-26T15:06:46Z</time>
      </trkpt>
      <trkpt lat="43.20536" lon="-0.72888">
        <ele>215.711868</ele>
        <time>2018-10-26T15:06:50Z</time>
      </trkpt>
      <trkpt lat="43.20552" lon="-0.72949">
        <ele>217.967499</ele>
        <time>2018-10-26T15:06:59Z</time>
      </trkpt>
      <trkpt lat="43.20563" lon="-0.73009">
        <ele>221.679306</ele>
        <time>2018-10-26T15:07:11Z</time>
      </trkpt>
      <trkpt lat="43.20571" lon="-0.73036">
        <ele>223.246964</ele>
        <time>2018-10-26T15:07:16Z</time>
      </trkpt>
      <trkpt lat="43.20573" lon="-0.73062">
        <ele>224.552429</ele>
        <time>2018-10-26T15:07:20Z</time>
      </trkpt>
      <trkpt lat="43.20568" lon="-0.73133">
        <ele>222.072662</ele>
        <time>2018-10-26T15:07:29Z</time>
      </trkpt>
      <trkpt lat="43.20576" lon="-0.732">
        <ele>218.720398</ele>
        <time>2018-10-26T15:07:37Z</time>
      </trkpt>
      <trkpt lat="43.20567" lon="-0.73271">
        <ele>213.444992</ele>
        <time>2018-10-26T15:07:45Z</time>
      </trkpt>
      <trkpt lat="43.20579" lon="-0.73324">
        <ele>211.552872</ele>
        <time>2018-10-26T15:07:50Z</time>
      </trkpt>
      <trkpt lat="43.20593" lon="-0.73363">
        <ele>209.931244</ele>
        <time>2018-10-26T15:07:54Z</time>
      </trkpt>
      <trkpt lat="43.20623" lon="-0.73412">
        <ele>208.699997</ele>
        <time>2018-10-26T15:07:59Z</time>
      </trkpt>
      <trkpt lat="43.20653" lon="-0.73443">
        <ele>207.949768</ele>
        <time>2018-10-26T15:08:03Z</time>
      </trkpt>
      <trkpt lat="43.20721" lon="-0.73476">
        <ele>207.043198</ele>
        <time>2018-10-26T15:08:11Z</time>
      </trkpt>
      <trkpt lat="43.20773" lon="-0.7352">
        <ele>207.499603</ele>
        <time>2018-10-26T15:08:20Z</time>
      </trkpt>
      <trkpt lat="43.20775" lon="-0.73548">
        <ele>209.1595</ele>
        <time>2018-10-26T15:08:25Z</time>
      </trkpt>
      <trkpt lat="43.20758" lon="-0.73558">
        <ele>211.486008</ele>
        <time>2018-10-26T15:08:29Z</time>
      </trkpt>
      <trkpt lat="43.20722" lon="-0.73566">
        <ele>216.142059</ele>
        <time>2018-10-26T15:08:38Z</time>
      </trkpt>
      <trkpt lat="43.20702" lon="-0.73577">
        <ele>219.213928</ele>
        <time>2018-10-26T15:08:43Z</time>
      </trkpt>
      <trkpt lat="43.20685" lon="-0.73579">
        <ele>219.861252</ele>
        <time>2018-10-26T15:08:47Z</time>
      </trkpt>
      <trkpt lat="43.20655" lon="-0.73597">
        <ele>222.563797</ele>
        <time>2018-10-26T15:08:56Z</time>
      </trkpt>
      <trkpt lat="43.20636" lon="-0.73604">
        <ele>223.452209</ele>
        <time>2018-10-26T15:09:01Z</time>
      </trkpt>
      <trkpt lat="43.20608" lon="-0.73631">
        <ele>224.59079</ele>
        <time>2018-10-26T15:09:10Z</time>
      </trkpt>
      <trkpt lat="43.20604" lon="-0.73652">
        <ele>224.424622</ele>
        <time>2018-10-26T15:09:14Z</time>
      </trkpt>
      <trkpt lat="43.20614" lon="-0.73674">
        <ele>225.515167</ele>
        <time>2018-10-26T15:09:18Z</time>
      </trkpt>
      <trkpt lat="43.20646" lon="-0.73694">
        <ele>228.101944</ele>
        <time>2018-10-26T15:09:28Z</time>
      </trkpt>
      <trkpt lat="43.20661" lon="-0.73691">
        <ele>229.619247</ele>
        <time>2018-10-26T15:09:32Z</time>
      </trkpt>
      <trkpt lat="43.2071" lon="-0.7367">
        <ele>234.874527</ele>
        <time>2018-10-26T15:09:46Z</time>
      </trkpt>
      <trkpt lat="43.20743" lon="-0.73663">
        <ele>237.012131</ele>
        <time>2018-10-26T15:09:55Z</time>
      </trkpt>
      <trkpt lat="43.20764" lon="-0.73673">
        <ele>239.056793</ele>
        <time>2018-10-26T15:10:00Z</time>
      </trkpt>
      <trkpt lat="43.20788" lon="-0.73703">
        <ele>240.997574</ele>
        <time>2018-10-26T15:10:08Z</time>
      </trkpt>
      <trkpt lat="43.20811" lon="-0.73758">
        <ele>240.730194</ele>
        <time>2018-10-26T15:10:20Z</time>
      </trkpt>
      <trkpt lat="43.20807" lon="-0.73797">
        <ele>241.955597</ele>
        <time>2018-10-26T15:10:25Z</time>
      </trkpt>
      <trkpt lat="43.20801" lon="-0.73825">
        <ele>242.903183</ele>
        <time>2018-10-26T15:10:29Z</time>
      </trkpt>
      <trkpt lat="43.20804" lon="-0.73857">
        <ele>243.631561</ele>
        <time>2018-10-26T15:10:33Z</time>
      </trkpt>
      <trkpt lat="43.20816" lon="-0.73893">
        <ele>244.401733</ele>
        <time>2018-10-26T15:10:37Z</time>
      </trkpt>
      <trkpt lat="43.20834" lon="-0.73923">
        <ele>245.646576</ele>
        <time>2018-10-26T15:10:41Z</time>
      </trkpt>
      <trkpt lat="43.20854" lon="-0.73931">
        <ele>246.249527</ele>
        <time>2018-10-26T15:10:45Z</time>
      </trkpt>
      <trkpt lat="43.20877" lon="-0.73934">
        <ele>246.864395</ele>
        <time>2018-10-26T15:10:50Z</time>
      </trkpt>
      <trkpt lat="43.20894" lon="-0.7394">
        <ele>246.790237</ele>
        <time>2018-10-26T15:10:54Z</time>
      </trkpt>
      <trkpt lat="43.20916" lon="-0.73957">
        <ele>247.015091</ele>
        <time>2018-10-26T15:10:59Z</time>
      </trkpt>
      <trkpt lat="43.20929" lon="-0.73977">
        <ele>247.617294</ele>
        <time>2018-10-26T15:11:03Z</time>
      </trkpt>
      <trkpt lat="43.20937" lon="-0.74007">
        <ele>248.650848</ele>
        <time>2018-10-26T15:11:07Z</time>
      </trkpt>
      <trkpt lat="43.20943" lon="-0.74045">
        <ele>250.15567</ele>
        <time>2018-10-26T15:11:12Z</time>
      </trkpt>
      <trkpt lat="43.20952" lon="-0.74081">
        <ele>251.408783</ele>
        <time>2018-10-26T15:11:17Z</time>
      </trkpt>
      <trkpt lat="43.20964" lon="-0.74104">
        <ele>252.587936</ele>
        <time>2018-10-26T15:11:21Z</time>
      </trkpt>
      <trkpt lat="43.20982" lon="-0.7412">
        <ele>254.640808</ele>
        <time>2018-10-26T15:11:25Z</time>
      </trkpt>
      <trkpt lat="43.21006" lon="-0.74126">
        <ele>257.571991</ele>
        <time>2018-10-26T15:11:30Z</time>
      </trkpt>
      <trkpt lat="43.21027" lon="-0.74124">
        <ele>258.742859</ele>
        <time>2018-10-26T15:11:34Z</time>
      </trkpt>
      <trkpt lat="43.21068" lon="-0.74136">
        <ele>260.888031</ele>
        <time>2018-10-26T15:11:43Z</time>
      </trkpt>
      <trkpt lat="43.2111" lon="-0.74166">
        <ele>261.430298</ele>
        <time>2018-10-26T15:11:52Z</time>
      </trkpt>
      <trkpt lat="43.21136" lon="-0.74165">
        <ele>261.092346</ele>
        <time>2018-10-26T15:11:57Z</time>
      </trkpt>
      <trkpt lat="43.21157" lon="-0.74159">
        <ele>260.865814</ele>
        <time>2018-10-26T15:12:01Z</time>
      </trkpt>
      <trkpt lat="43.21229" lon="-0.74122">
        <ele>261.587891</ele>
        <time>2018-10-26T15:12:19Z</time>
      </trkpt>
      <trkpt lat="43.21242" lon="-0.74117">
        <ele>261.917511</ele>
        <time>2018-10-26T15:12:23Z</time>
      </trkpt>
      <trkpt lat="43.2126" lon="-0.74116">
        <ele>262.565002</ele>
        <time>2018-10-26T15:12:28Z</time>
      </trkpt>
      <trkpt lat="43.21278" lon="-0.7412">
        <ele>263.617493</ele>
        <time>2018-10-26T15:12:33Z</time>
      </trkpt>
      <trkpt lat="43.21305" lon="-0.74133">
        <ele>265.582489</ele>
        <time>2018-10-26T15:12:41Z</time>
      </trkpt>
      <trkpt lat="43.2132" lon="-0.74137">
        <ele>266.372498</ele>
        <time>2018-10-26T15:12:45Z</time>
      </trkpt>
      <trkpt lat="43.21341" lon="-0.74131">
        <ele>266.652802</ele>
        <time>2018-10-26T15:12:50Z</time>
      </trkpt>
      <trkpt lat="43.21378" lon="-0.74094">
        <ele>266.222809</ele>
        <time>2018-10-26T15:12:58Z</time>
      </trkpt>
      <trkpt lat="43.21402" lon="-0.74066">
        <ele>265.827332</ele>
        <time>2018-10-26T15:13:02Z</time>
      </trkpt>
      <trkpt lat="43.2141" lon="-0.74034">
        <ele>266.203949</ele>
        <time>2018-10-26T15:13:06Z</time>
      </trkpt>
      <trkpt lat="43.21432" lon="-0.73982">
        <ele>267.06601</ele>
        <time>2018-10-26T15:13:15Z</time>
      </trkpt>
      <trkpt lat="43.21442" lon="-0.73966">
        <ele>268.70224</ele>
        <time>2018-10-26T15:13:19Z</time>
      </trkpt>
      <trkpt lat="43.21453" lon="-0.73943">
        <ele>271.27243</ele>
        <time>2018-10-26T15:13:24Z</time>
      </trkpt>
      <trkpt lat="43.2147" lon="-0.73867">
        <ele>278.986542</ele>
        <time>2018-10-26T15:13:37Z</time>
      </trkpt>
      <trkpt lat="43.21484" lon="-0.73836">
        <ele>280.839508</ele>
        <time>2018-10-26T15:13:45Z</time>
      </trkpt>
      <trkpt lat="43.21491" lon="-0.73827">
        <ele>280.568726</ele>
        <time>2018-10-26T15:13:49Z</time>
      </trkpt>
      <trkpt lat="43.21511" lon="-0.73814">
        <ele>282.145782</ele>
        <time>2018-10-26T15:13:58Z</time>
      </trkpt>
      <trkpt lat="43.2154" lon="-0.73803">
        <ele>283.980621</ele>
        <time>2018-10-26T15:14:06Z</time>
      </trkpt>
      <trkpt lat="43.21561" lon="-0.73786">
        <ele>285.107971</ele>
        <time>2018-10-26T15:14:11Z</time>
      </trkpt>
      <trkpt lat="43.21576" lon="-0.73767">
        <ele>285.567719</ele>
        <time>2018-10-26T15:14:15Z</time>
      </trkpt>
      <trkpt lat="43.2159" lon="-0.73738">
        <ele>285.740265</ele>
        <time>2018-10-26T15:14:20Z</time>
      </trkpt>
      <trkpt lat="43.21601" lon="-0.73705">
        <ele>286.049957</ele>
        <time>2018-10-26T15:14:25Z</time>
      </trkpt>
      <trkpt lat="43.21612" lon="-0.73649">
        <ele>285.28714</ele>
        <time>2018-10-26T15:14:33Z</time>
      </trkpt>
      <trkpt lat="43.21633" lon="-0.73633">
        <ele>285.450928</ele>
        <time>2018-10-26T15:14:37Z</time>
      </trkpt>
      <trkpt lat="43.21651" lon="-0.73611">
        <ele>285.865723</ele>
        <time>2018-10-26T15:14:41Z</time>
      </trkpt>
      <trkpt lat="43.21662" lon="-0.73545">
        <ele>283.81076</ele>
        <time>2018-10-26T15:14:49Z</time>
      </trkpt>
      <trkpt lat="43.21662" lon="-0.735">
        <ele>283.025513</ele>
        <time>2018-10-26T15:14:54Z</time>
      </trkpt>
      <trkpt lat="43.21665" lon="-0.73418">
        <ele>282.696991</ele>
        <time>2018-10-26T15:15:04Z</time>
      </trkpt>
      <trkpt lat="43.21669" lon="-0.73389">
        <ele>282.344055</ele>
        <time>2018-10-26T15:15:08Z</time>
      </trkpt>
      <trkpt lat="43.2167" lon="-0.73312">
        <ele>281.597595</ele>
        <time>2018-10-26T15:15:16Z</time>
      </trkpt>
      <trkpt lat="43.21674" lon="-0.73262">
        <ele>280.610016</ele>
        <time>2018-10-26T15:15:21Z</time>
      </trkpt>
      <trkpt lat="43.21684" lon="-0.73218">
        <ele>280.896759</ele>
        <time>2018-10-26T15:15:26Z</time>
      </trkpt>
      <trkpt lat="43.21694" lon="-0.73191">
        <ele>282.204803</ele>
        <time>2018-10-26T15:15:30Z</time>
      </trkpt>
      <trkpt lat="43.21726" lon="-0.73145">
        <ele>284.910004</ele>
        <time>2018-10-26T15:15:39Z</time>
      </trkpt>
      <trkpt lat="43.2174" lon="-0.73131">
        <ele>285.441254</ele>
        <time>2018-10-26T15:15:43Z</time>
      </trkpt>
      <trkpt lat="43.2176" lon="-0.73121">
        <ele>285.981781</ele>
        <time>2018-10-26T15:15:47Z</time>
      </trkpt>
      <trkpt lat="43.21806" lon="-0.73106">
        <ele>286.019012</ele>
        <time>2018-10-26T15:15:57Z</time>
      </trkpt>
      <trkpt lat="43.21861" lon="-0.73073">
        <ele>286.879364</ele>
        <time>2018-10-26T15:16:09Z</time>
      </trkpt>
      <trkpt lat="43.21879" lon="-0.73059">
        <ele>286.744995</ele>
        <time>2018-10-26T15:16:13Z</time>
      </trkpt>
      <trkpt lat="43.219" lon="-0.73036">
        <ele>285.910706</ele>
        <time>2018-10-26T15:16:22Z</time>
      </trkpt>
      <trkpt lat="43.21913" lon="-0.73032">
        <ele>285.585632</ele>
        <time>2018-10-26T15:16:26Z</time>
      </trkpt>
      <trkpt lat="43.21956" lon="-0.73037">
        <ele>284.789886</ele>
        <time>2018-10-26T15:16:34Z</time>
      </trkpt>
      <trkpt lat="43.21966" lon="-0.73034">
        <ele>284.272369</ele>
        <time>2018-10-26T15:16:38Z</time>
      </trkpt>
      <trkpt lat="43.2199" lon="-0.73044">
        <ele>283.785339</ele>
        <time>2018-10-26T15:16:43Z</time>
      </trkpt>
      <trkpt lat="43.22023" lon="-0.73065">
        <ele>282.941864</ele>
        <time>2018-10-26T15:16:48Z</time>
      </trkpt>
      <trkpt lat="43.22057" lon="-0.73096">
        <ele>279.48999</ele>
        <time>2018-10-26T15:16:56Z</time>
      </trkpt>
      <trkpt lat="43.22097" lon="-0.73109">
        <ele>277.828735</ele>
        <time>2018-10-26T15:17:05Z</time>
      </trkpt>
      <trkpt lat="43.22119" lon="-0.73126">
        <ele>275.870331</ele>
        <time>2018-10-26T15:17:09Z</time>
      </trkpt>
      <trkpt lat="43.22182" lon="-0.73125">
        <ele>274.059906</ele>
        <time>2018-10-26T15:17:18Z</time>
      </trkpt>
      <trkpt lat="43.222" lon="-0.7312">
        <ele>274.216095</ele>
        <time>2018-10-26T15:17:22Z</time>
      </trkpt>
      <trkpt lat="43.22228" lon="-0.73093">
        <ele>274.70282</ele>
        <time>2018-10-26T15:17:31Z</time>
      </trkpt>
      <trkpt lat="43.22235" lon="-0.73081">
        <ele>274.340179</ele>
        <time>2018-10-26T15:17:35Z</time>
      </trkpt>
      <trkpt lat="43.22258" lon="-0.73094">
        <ele>271.210632</ele>
        <time>2018-10-26T15:17:44Z</time>
      </trkpt>
      <trkpt lat="43.22305" lon="-0.73143">
        <ele>267.80249</ele>
        <time>2018-10-26T15:17:53Z</time>
      </trkpt>
      <trkpt lat="43.22332" lon="-0.7314">
        <ele>267.209991</ele>
        <time>2018-10-26T15:17:58Z</time>
      </trkpt>
      <trkpt lat="43.22383" lon="-0.73153">
        <ele>267</ele>
        <time>2018-10-26T15:18:07Z</time>
      </trkpt>
      <trkpt lat="43.22423" lon="-0.73156">
        <ele>267</ele>
        <time>2018-10-26T15:18:15Z</time>
      </trkpt>
      <trkpt lat="43.22447" lon="-0.73166">
        <ele>266.38501</ele>
        <time>2018-10-26T15:18:20Z</time>
      </trkpt>
      <trkpt lat="43.22474" lon="-0.7317">
        <ele>265.703735</ele>
        <time>2018-10-26T15:18:24Z</time>
      </trkpt>
      <trkpt lat="43.22511" lon="-0.73149">
        <ele>265.06604</ele>
        <time>2018-10-26T15:18:29Z</time>
      </trkpt>
      <trkpt lat="43.22548" lon="-0.73143">
        <ele>264.079376</ele>
        <time>2018-10-26T15:18:34Z</time>
      </trkpt>
      <trkpt lat="43.22582" lon="-0.73158">
        <ele>263.442993</ele>
        <time>2018-10-26T15:18:39Z</time>
      </trkpt>
      <trkpt lat="43.22606" lon="-0.7316">
        <ele>262.809418</ele>
        <time>2018-10-26T15:18:43Z</time>
      </trkpt>
      <trkpt lat="43.22627" lon="-0.73166">
        <ele>262.87619</ele>
        <time>2018-10-26T15:18:47Z</time>
      </trkpt>
      <trkpt lat="43.22669" lon="-0.73205">
        <ele>262.37442</ele>
        <time>2018-10-26T15:18:56Z</time>
      </trkpt>
      <trkpt lat="43.22695" lon="-0.7322">
        <ele>263.065704</ele>
        <time>2018-10-26T15:19:01Z</time>
      </trkpt>
      <trkpt lat="43.22735" lon="-0.73232">
        <ele>263.876862</ele>
        <time>2018-10-26T15:19:09Z</time>
      </trkpt>
      <trkpt lat="43.22752" lon="-0.73228">
        <ele>264.101624</ele>
        <time>2018-10-26T15:19:13Z</time>
      </trkpt>
      <trkpt lat="43.2277" lon="-0.73221">
        <ele>264.110779</ele>
        <time>2018-10-26T15:19:17Z</time>
      </trkpt>
      <trkpt lat="43.22825" lon="-0.73276">
        <ele>261.438141</ele>
        <time>2018-10-26T15:19:31Z</time>
      </trkpt>
      <trkpt lat="43.22824" lon="-0.73335">
        <ele>261.781311</ele>
        <time>2018-10-26T15:19:40Z</time>
      </trkpt>
      <trkpt lat="43.22831" lon="-0.73465">
        <ele>264.434998</ele>
        <time>2018-10-26T15:19:58Z</time>
      </trkpt>
      <trkpt lat="43.22819" lon="-0.73515">
        <ele>264.830902</ele>
        <time>2018-10-26T15:20:06Z</time>
      </trkpt>
      <trkpt lat="43.22829" lon="-0.73532">
        <ele>265.829376</ele>
        <time>2018-10-26T15:20:11Z</time>
      </trkpt>
      <trkpt lat="43.22832" lon="-0.7351">
        <ele>265.516266</ele>
        <time>2018-10-26T15:20:15Z</time>
      </trkpt>
      <trkpt lat="43.22842" lon="-0.73488">
        <ele>265.375</ele>
        <time>2018-10-26T15:20:20Z</time>
      </trkpt>
      <trkpt lat="43.22877" lon="-0.73483">
        <ele>265.788635</ele>
        <time>2018-10-26T15:20:28Z</time>
      </trkpt>
      <trkpt lat="43.22938" lon="-0.73468">
        <ele>264.431824</ele>
        <time>2018-10-26T15:20:37Z</time>
      </trkpt>
      <trkpt lat="43.22997" lon="-0.73458">
        <ele>262.352936</ele>
        <time>2018-10-26T15:20:42Z</time>
      </trkpt>
      <trkpt lat="43.23041" lon="-0.73487">
        <ele>257.418121</ele>
        <time>2018-10-26T15:20:46Z</time>
      </trkpt>
      <trkpt lat="43.23077" lon="-0.73548">
        <ele>249.342712</ele>
        <time>2018-10-26T15:20:51Z</time>
      </trkpt>
      <trkpt lat="43.23094" lon="-0.73605">
        <ele>248.216965</ele>
        <time>2018-10-26T15:20:55Z</time>
      </trkpt>
      <trkpt lat="43.23115" lon="-0.73656">
        <ele>247.717529</ele>
        <time>2018-10-26T15:20:59Z</time>
      </trkpt>
      <trkpt lat="43.23135" lon="-0.73697">
        <ele>247.832214</ele>
        <time>2018-10-26T15:21:03Z</time>
      </trkpt>
      <trkpt lat="43.23154" lon="-0.73726">
        <ele>247.036804</ele>
        <time>2018-10-26T15:21:08Z</time>
      </trkpt>
      <trkpt lat="43.23174" lon="-0.73746">
        <ele>246.939667</ele>
        <time>2018-10-26T15:21:13Z</time>
      </trkpt>
      <trkpt lat="43.23194" lon="-0.7374">
        <ele>245.757507</ele>
        <time>2018-10-26T15:21:17Z</time>
      </trkpt>
      <trkpt lat="43.23216" lon="-0.73714">
        <ele>243.921875</ele>
        <time>2018-10-26T15:21:21Z</time>
      </trkpt>
      <trkpt lat="43.2326" lon="-0.73679">
        <ele>241.584412</ele>
        <time>2018-10-26T15:21:26Z</time>
      </trkpt>
      <trkpt lat="43.23305" lon="-0.73667">
        <ele>241.084793</ele>
        <time>2018-10-26T15:21:30Z</time>
      </trkpt>
      <trkpt lat="43.2335" lon="-0.73666">
        <ele>240.699356</ele>
        <time>2018-10-26T15:21:34Z</time>
      </trkpt>
      <trkpt lat="43.23399" lon="-0.7369">
        <ele>238.680618</ele>
        <time>2018-10-26T15:21:39Z</time>
      </trkpt>
      <trkpt lat="43.23453" lon="-0.73685">
        <ele>236.029999</ele>
        <time>2018-10-26T15:21:44Z</time>
      </trkpt>
      <trkpt lat="43.23494" lon="-0.73671">
        <ele>234.352493</ele>
        <time>2018-10-26T15:21:48Z</time>
      </trkpt>
      <trkpt lat="43.23533" lon="-0.73666">
        <ele>231.632095</ele>
        <time>2018-10-26T15:21:52Z</time>
      </trkpt>
      <trkpt lat="43.23569" lon="-0.73655">
        <ele>228.561478</ele>
        <time>2018-10-26T15:21:56Z</time>
      </trkpt>
      <trkpt lat="43.236" lon="-0.73629">
        <ele>226.070007</ele>
        <time>2018-10-26T15:22:00Z</time>
      </trkpt>
      <trkpt lat="43.23627" lon="-0.73592">
        <ele>224.345001</ele>
        <time>2018-10-26T15:22:04Z</time>
      </trkpt>
      <trkpt lat="43.23657" lon="-0.73557">
        <ele>222.457932</ele>
        <time>2018-10-26T15:22:08Z</time>
      </trkpt>
      <trkpt lat="43.23713" lon="-0.73467">
        <ele>220.347504</ele>
        <time>2018-10-26T15:22:16Z</time>
      </trkpt>
      <trkpt lat="43.23747" lon="-0.73403">
        <ele>215.153122</ele>
        <time>2018-10-26T15:22:21Z</time>
      </trkpt>
      <trkpt lat="43.23793" lon="-0.73288">
        <ele>207.581863</ele>
        <time>2018-10-26T15:22:30Z</time>
      </trkpt>
      <trkpt lat="43.23824" lon="-0.73248">
        <ele>205.518753</ele>
        <time>2018-10-26T15:22:35Z</time>
      </trkpt>
      <trkpt lat="43.2385" lon="-0.73227">
        <ele>204.843597</ele>
        <time>2018-10-26T15:22:39Z</time>
      </trkpt>
      <trkpt lat="43.23872" lon="-0.73197">
        <ele>204.594009</ele>
        <time>2018-10-26T15:22:43Z</time>
      </trkpt>
      <trkpt lat="43.23923" lon="-0.73108">
        <ele>208.711243</ele>
        <time>2018-10-26T15:22:56Z</time>
      </trkpt>
      <trkpt lat="43.23949" lon="-0.7305">
        <ele>210.339493</ele>
        <time>2018-10-26T15:23:04Z</time>
      </trkpt>
      <trkpt lat="43.2397" lon="-0.73019">
        <ele>210.822495</ele>
        <time>2018-10-26T15:23:09Z</time>
      </trkpt>
      <trkpt lat="43.24008" lon="-0.72972">
        <ele>211.316818</ele>
        <time>2018-10-26T15:23:17Z</time>
      </trkpt>
      <trkpt lat="43.24059" lon="-0.72898">
        <ele>209.80249</ele>
        <time>2018-10-26T15:23:27Z</time>
      </trkpt>
      <trkpt lat="43.24079" lon="-0.72878">
        <ele>209.987503</ele>
        <time>2018-10-26T15:23:31Z</time>
      </trkpt>
      <trkpt lat="43.24131" lon="-0.72844">
        <ele>211.658752</ele>
        <time>2018-10-26T15:23:40Z</time>
      </trkpt>
      <trkpt lat="43.24145" lon="-0.72806">
        <ele>211.583755</ele>
        <time>2018-10-26T15:23:44Z</time>
      </trkpt>
      <trkpt lat="43.24153" lon="-0.72723">
        <ele>211.631241</ele>
        <time>2018-10-26T15:23:54Z</time>
      </trkpt>
      <trkpt lat="43.24176" lon="-0.72616">
        <ele>214.231247</ele>
        <time>2018-10-26T15:24:07Z</time>
      </trkpt>
      <trkpt lat="43.24183" lon="-0.72542">
        <ele>215.823746</ele>
        <time>2018-10-26T15:24:16Z</time>
      </trkpt>
      <trkpt lat="43.24184" lon="-0.7251">
        <ele>216.262451</ele>
        <time>2018-10-26T15:24:20Z</time>
      </trkpt>
      <trkpt lat="43.24191" lon="-0.72438">
        <ele>215.70256</ele>
        <time>2018-10-26T15:24:29Z</time>
      </trkpt>
      <trkpt lat="43.242" lon="-0.72403">
        <ele>215.075027</ele>
        <time>2018-10-26T15:24:33Z</time>
      </trkpt>
      <trkpt lat="43.24213" lon="-0.72364">
        <ele>213.175858</ele>
        <time>2018-10-26T15:24:37Z</time>
      </trkpt>
      <trkpt lat="43.2426" lon="-0.72257">
        <ele>202.964706</ele>
        <time>2018-10-26T15:24:47Z</time>
      </trkpt>
      <trkpt lat="43.24296" lon="-0.72203">
        <ele>199.46489</ele>
        <time>2018-10-26T15:24:52Z</time>
      </trkpt>
      <trkpt lat="43.24312" lon="-0.72143">
        <ele>202.585999</ele>
        <time>2018-10-26T15:24:57Z</time>
      </trkpt>
      <trkpt lat="43.24336" lon="-0.72072">
        <ele>206.985001</ele>
        <time>2018-10-26T15:25:06Z</time>
      </trkpt>
      <trkpt lat="43.2435" lon="-0.72039">
        <ele>207.838745</ele>
        <time>2018-10-26T15:25:11Z</time>
      </trkpt>
      <trkpt lat="43.2443" lon="-0.71878">
        <ele>205.798126</ele>
        <time>2018-10-26T15:25:34Z</time>
      </trkpt>
      <trkpt lat="43.245" lon="-0.71699">
        <ele>201.233124</ele>
        <time>2018-10-26T15:25:56Z</time>
      </trkpt>
      <trkpt lat="43.24551" lon="-0.71607">
        <ele>197.660004</ele>
        <time>2018-10-26T15:26:09Z</time>
      </trkpt>
      <trkpt lat="43.24574" lon="-0.71573">
        <ele>195.469376</ele>
        <time>2018-10-26T15:26:13Z</time>
      </trkpt>
      <trkpt lat="43.24617" lon="-0.71536">
        <ele>193.029358</ele>
        <time>2018-10-26T15:26:18Z</time>
      </trkpt>
      <trkpt lat="43.24684" lon="-0.71489">
        <ele>189.725052</ele>
        <time>2018-10-26T15:26:27Z</time>
      </trkpt>
      <trkpt lat="43.24708" lon="-0.71465">
        <ele>188.319885</ele>
        <time>2018-10-26T15:26:31Z</time>
      </trkpt>
      <trkpt lat="43.24741" lon="-0.71379">
        <ele>182.550003</ele>
        <time>2018-10-26T15:26:40Z</time>
      </trkpt>
      <trkpt lat="43.24745" lon="-0.71334">
        <ele>180.308746</ele>
        <time>2018-10-26T15:26:44Z</time>
      </trkpt>
      <trkpt lat="43.24745" lon="-0.71281">
        <ele>178.610764</ele>
        <time>2018-10-26T15:26:49Z</time>
      </trkpt>
      <trkpt lat="43.24748" lon="-0.71237">
        <ele>177.759995</ele>
        <time>2018-10-26T15:26:53Z</time>
      </trkpt>
      <trkpt lat="43.24759" lon="-0.71201">
        <ele>177.163757</ele>
        <time>2018-10-26T15:26:57Z</time>
      </trkpt>
      <trkpt lat="43.24803" lon="-0.7109">
        <ele>175.850266</ele>
        <time>2018-10-26T15:27:11Z</time>
      </trkpt>
      <trkpt lat="43.24836" lon="-0.71019">
        <ele>175.979889</ele>
        <time>2018-10-26T15:27:20Z</time>
      </trkpt>
      <trkpt lat="43.24856" lon="-0.70989">
        <ele>176</ele>
        <time>2018-10-26T15:27:24Z</time>
      </trkpt>
      <trkpt lat="43.2489" lon="-0.70946">
        <ele>176</ele>
        <time>2018-10-26T15:27:29Z</time>
      </trkpt>
      <trkpt lat="43.24914" lon="-0.70891">
        <ele>175.996078</ele>
        <time>2018-10-26T15:27:34Z</time>
      </trkpt>
      <trkpt lat="43.24944" lon="-0.70805">
        <ele>174.827362</ele>
        <time>2018-10-26T15:27:43Z</time>
      </trkpt>
      <trkpt lat="43.24976" lon="-0.7074">
        <ele>174</ele>
        <time>2018-10-26T15:27:53Z</time>
      </trkpt>
      <trkpt lat="43.25027" lon="-0.7068">
        <ele>175.088745</ele>
        <time>2018-10-26T15:28:05Z</time>
      </trkpt>
      <trkpt lat="43.25038" lon="-0.70649">
        <ele>176.164017</ele>
        <time>2018-10-26T15:28:10Z</time>
      </trkpt>
      <trkpt lat="43.25035" lon="-0.70621">
        <ele>177.866089</ele>
        <time>2018-10-26T15:28:14Z</time>
      </trkpt>
      <trkpt lat="43.25039" lon="-0.7059">
        <ele>179.638748</ele>
        <time>2018-10-26T15:28:18Z</time>
      </trkpt>
      <trkpt lat="43.25046" lon="-0.70571">
        <ele>180.130005</ele>
        <time>2018-10-26T15:28:22Z</time>
      </trkpt>
      <trkpt lat="43.25052" lon="-0.70568">
        <ele>180.095001</ele>
        <time>2018-10-26T15:28:44Z</time>
      </trkpt>
    </trkseg>
  </trk>
</gpx>